<?xml version="1.0" encoding="UTF-8" standalone="no" ?>
<gpx xmlns="http://www.topografix.com/GPX/1/1" xmlns:xsi="http://www.w3.org/2001/XMLSchema-instance" xsi:schemaLocation="http://www.topografix.com/GPX/1/1 http://www.topografix.com/GPX/1/1/gpx.xsd" version="1.1" creator="VisuGPX - https://www.visugpx.com">
  <metadata>
    <name>ploemeur-45 km</name>
    <desc><![CDATA[Cyclemeter Vélo (Route) 13 août 2010 08:56:33]]></desc>
  </metadata>
  <trk>
    <name><![CDATA[Tour De Ploemeur Vtt]]></name>
    <trkseg>
      <trkpt lat="47.72229" lon="-3.39952">
        <ele>84</ele>
        <time>2010-08-13T06:56:41Z</time>
      </trkpt>
      <trkpt lat="47.72204" lon="-3.39935">
        <ele>101</ele>
        <time>2010-08-13T06:57:14Z</time>
      </trkpt>
      <trkpt lat="47.72179" lon="-3.3992">
        <ele>100.7</ele>
        <time>2010-08-13T06:57:26Z</time>
      </trkpt>
      <trkpt lat="47.72168" lon="-3.39878">
        <ele>100.4</ele>
        <time>2010-08-13T06:57:39Z</time>
      </trkpt>
      <trkpt lat="47.72167" lon="-3.39788">
        <ele>100</ele>
        <time>2010-08-13T06:57:55Z</time>
      </trkpt>
      <trkpt lat="47.72159" lon="-3.39705">
        <ele>99.6</ele>
        <time>2010-08-13T06:58:09Z</time>
      </trkpt>
      <trkpt lat="47.7215" lon="-3.3963">
        <ele>99.4</ele>
        <time>2010-08-13T06:58:15Z</time>
      </trkpt>
      <trkpt lat="47.72133" lon="-3.39565">
        <ele>99.1</ele>
        <time>2010-08-13T06:58:27Z</time>
      </trkpt>
      <trkpt lat="47.72187" lon="-3.39577">
        <ele>98.8</ele>
        <time>2010-08-13T06:58:38Z</time>
      </trkpt>
      <trkpt lat="47.72232" lon="-3.39588">
        <ele>98.6</ele>
        <time>2010-08-13T06:58:48Z</time>
      </trkpt>
      <trkpt lat="47.72263" lon="-3.39638">
        <ele>98.3</ele>
        <time>2010-08-13T06:58:57Z</time>
      </trkpt>
      <trkpt lat="47.7228" lon="-3.39656">
        <ele>98.3</ele>
        <time>2010-08-13T06:59:01Z</time>
      </trkpt>
      <trkpt lat="47.72325" lon="-3.39642">
        <ele>98.1</ele>
        <time>2010-08-13T06:59:08Z</time>
      </trkpt>
      <trkpt lat="47.72385" lon="-3.39612">
        <ele>97.8</ele>
        <time>2010-08-13T06:59:18Z</time>
      </trkpt>
      <trkpt lat="47.72428" lon="-3.39589">
        <ele>97.5</ele>
        <time>2010-08-13T06:59:29Z</time>
      </trkpt>
      <trkpt lat="47.72475" lon="-3.39579">
        <ele>97.2</ele>
        <time>2010-08-13T06:59:41Z</time>
      </trkpt>
      <trkpt lat="47.72521" lon="-3.39589">
        <ele>97</ele>
        <time>2010-08-13T06:59:50Z</time>
      </trkpt>
      <trkpt lat="47.72566" lon="-3.39614">
        <ele>96.8</ele>
        <time>2010-08-13T06:59:59Z</time>
      </trkpt>
      <trkpt lat="47.7262" lon="-3.39633">
        <ele>96.6</ele>
        <time>2010-08-13T07:00:07Z</time>
      </trkpt>
      <trkpt lat="47.72669" lon="-3.39627">
        <ele>96.3</ele>
        <time>2010-08-13T07:00:17Z</time>
      </trkpt>
      <trkpt lat="47.72708" lon="-3.39636">
        <ele>96.1</ele>
        <time>2010-08-13T07:00:26Z</time>
      </trkpt>
      <trkpt lat="47.72741" lon="-3.39597">
        <ele>95.6</ele>
        <time>2010-08-13T07:00:43Z</time>
      </trkpt>
      <trkpt lat="47.72747" lon="-3.3953">
        <ele>95.5</ele>
        <time>2010-08-13T07:00:49Z</time>
      </trkpt>
      <trkpt lat="47.72748" lon="-3.39513">
        <ele>95.4</ele>
        <time>2010-08-13T07:00:51Z</time>
      </trkpt>
      <trkpt lat="47.72726" lon="-3.39448">
        <ele>95.2</ele>
        <time>2010-08-13T07:01:02Z</time>
      </trkpt>
      <trkpt lat="47.72707" lon="-3.39383">
        <ele>95</ele>
        <time>2010-08-13T07:01:10Z</time>
      </trkpt>
      <trkpt lat="47.72672" lon="-3.39317">
        <ele>94.7</ele>
        <time>2010-08-13T07:01:19Z</time>
      </trkpt>
      <trkpt lat="47.72647" lon="-3.39256">
        <ele>94.5</ele>
        <time>2010-08-13T07:01:28Z</time>
      </trkpt>
      <trkpt lat="47.72643" lon="-3.39245">
        <ele>94.4</ele>
        <time>2010-08-13T07:01:30Z</time>
      </trkpt>
      <trkpt lat="47.72645" lon="-3.39238">
        <ele>94.4</ele>
        <time>2010-08-13T07:01:32Z</time>
      </trkpt>
      <trkpt lat="47.72602" lon="-3.39213">
        <ele>93.7</ele>
        <time>2010-08-13T07:01:59Z</time>
      </trkpt>
      <trkpt lat="47.72555" lon="-3.39195">
        <ele>93.4</ele>
        <time>2010-08-13T07:02:12Z</time>
      </trkpt>
      <trkpt lat="47.72512" lon="-3.39168">
        <ele>93</ele>
        <time>2010-08-13T07:02:28Z</time>
      </trkpt>
      <trkpt lat="47.725" lon="-3.39159">
        <ele>92.8</ele>
        <time>2010-08-13T07:02:32Z</time>
      </trkpt>
      <trkpt lat="47.72525" lon="-3.39096">
        <ele>92.6</ele>
        <time>2010-08-13T07:02:43Z</time>
      </trkpt>
      <trkpt lat="47.72559" lon="-3.39004">
        <ele>92.4</ele>
        <time>2010-08-13T07:02:50Z</time>
      </trkpt>
      <trkpt lat="47.72583" lon="-3.38947">
        <ele>92</ele>
        <time>2010-08-13T07:03:05Z</time>
      </trkpt>
      <trkpt lat="47.72622" lon="-3.38932">
        <ele>91.5</ele>
        <time>2010-08-13T07:03:26Z</time>
      </trkpt>
      <trkpt lat="47.72652" lon="-3.38901">
        <ele>91.2</ele>
        <time>2010-08-13T07:03:36Z</time>
      </trkpt>
      <trkpt lat="47.72674" lon="-3.3884">
        <ele>90.9</ele>
        <time>2010-08-13T07:03:46Z</time>
      </trkpt>
      <trkpt lat="47.72701" lon="-3.38785">
        <ele>90.7</ele>
        <time>2010-08-13T07:03:55Z</time>
      </trkpt>
      <trkpt lat="47.72726" lon="-3.38724">
        <ele>90.5</ele>
        <time>2010-08-13T07:04:04Z</time>
      </trkpt>
      <trkpt lat="47.72735" lon="-3.38708">
        <ele>90.4</ele>
        <time>2010-08-13T07:04:06Z</time>
      </trkpt>
      <trkpt lat="47.72777" lon="-3.38688">
        <ele>90.2</ele>
        <time>2010-08-13T07:04:14Z</time>
      </trkpt>
      <trkpt lat="47.72829" lon="-3.38722">
        <ele>89.9</ele>
        <time>2010-08-13T07:04:24Z</time>
      </trkpt>
      <trkpt lat="47.72843" lon="-3.38744">
        <ele>89.6</ele>
        <time>2010-08-13T07:04:31Z</time>
      </trkpt>
      <trkpt lat="47.72897" lon="-3.38764">
        <ele>89.1</ele>
        <time>2010-08-13T07:04:41Z</time>
      </trkpt>
      <trkpt lat="47.7294" lon="-3.38792">
        <ele>88.5</ele>
        <time>2010-08-13T07:04:51Z</time>
      </trkpt>
      <trkpt lat="47.72987" lon="-3.38778">
        <ele>88</ele>
        <time>2010-08-13T07:05:01Z</time>
      </trkpt>
      <trkpt lat="47.73023" lon="-3.38738">
        <ele>87.5</ele>
        <time>2010-08-13T07:05:10Z</time>
      </trkpt>
      <trkpt lat="47.73057" lon="-3.38691">
        <ele>87</ele>
        <time>2010-08-13T07:05:20Z</time>
      </trkpt>
      <trkpt lat="47.73087" lon="-3.38641">
        <ele>86.5</ele>
        <time>2010-08-13T07:05:30Z</time>
      </trkpt>
      <trkpt lat="47.73138" lon="-3.38637">
        <ele>86</ele>
        <time>2010-08-13T07:05:40Z</time>
      </trkpt>
      <trkpt lat="47.73185" lon="-3.38634">
        <ele>85.5</ele>
        <time>2010-08-13T07:05:49Z</time>
      </trkpt>
      <trkpt lat="47.7323" lon="-3.38631">
        <ele>85</ele>
        <time>2010-08-13T07:05:59Z</time>
      </trkpt>
      <trkpt lat="47.73272" lon="-3.38601">
        <ele>84.4</ele>
        <time>2010-08-13T07:06:09Z</time>
      </trkpt>
      <trkpt lat="47.73318" lon="-3.38583">
        <ele>83.9</ele>
        <time>2010-08-13T07:06:20Z</time>
      </trkpt>
      <trkpt lat="47.73332" lon="-3.3856">
        <ele>83.6</ele>
        <time>2010-08-13T07:06:26Z</time>
      </trkpt>
      <trkpt lat="47.73318" lon="-3.3849">
        <ele>82.6</ele>
        <time>2010-08-13T07:06:44Z</time>
      </trkpt>
      <trkpt lat="47.73299" lon="-3.38481">
        <ele>82.2</ele>
        <time>2010-08-13T07:06:52Z</time>
      </trkpt>
      <trkpt lat="47.73278" lon="-3.3849">
        <ele>82</ele>
        <time>2010-08-13T07:06:56Z</time>
      </trkpt>
      <trkpt lat="47.7324" lon="-3.38545">
        <ele>81.6</ele>
        <time>2010-08-13T07:07:04Z</time>
      </trkpt>
      <trkpt lat="47.73174" lon="-3.38589">
        <ele>81.1</ele>
        <time>2010-08-13T07:07:12Z</time>
      </trkpt>
      <trkpt lat="47.73125" lon="-3.386">
        <ele>80.5</ele>
        <time>2010-08-13T07:07:24Z</time>
      </trkpt>
      <trkpt lat="47.73077" lon="-3.38598">
        <ele>80.2</ele>
        <time>2010-08-13T07:07:30Z</time>
      </trkpt>
      <trkpt lat="47.73032" lon="-3.38584">
        <ele>80.1</ele>
        <time>2010-08-13T07:07:37Z</time>
      </trkpt>
      <trkpt lat="47.72988" lon="-3.38552">
        <ele>80.4</ele>
        <time>2010-08-13T07:07:45Z</time>
      </trkpt>
      <trkpt lat="47.72951" lon="-3.38461">
        <ele>80.8</ele>
        <time>2010-08-13T07:07:56Z</time>
      </trkpt>
      <trkpt lat="47.72953" lon="-3.38393">
        <ele>81.2</ele>
        <time>2010-08-13T07:08:07Z</time>
      </trkpt>
      <trkpt lat="47.72953" lon="-3.38367">
        <ele>81.3</ele>
        <time>2010-08-13T07:08:09Z</time>
      </trkpt>
      <trkpt lat="47.72976" lon="-3.38307">
        <ele>81.5</ele>
        <time>2010-08-13T07:08:14Z</time>
      </trkpt>
      <trkpt lat="47.7298" lon="-3.38298">
        <ele>81.5</ele>
        <time>2010-08-13T07:08:15Z</time>
      </trkpt>
      <trkpt lat="47.72971" lon="-3.3826">
        <ele>81.7</ele>
        <time>2010-08-13T07:08:19Z</time>
      </trkpt>
      <trkpt lat="47.72936" lon="-3.38201">
        <ele>82</ele>
        <time>2010-08-13T07:08:27Z</time>
      </trkpt>
      <trkpt lat="47.72894" lon="-3.38134">
        <ele>82.3</ele>
        <time>2010-08-13T07:08:36Z</time>
      </trkpt>
      <trkpt lat="47.72855" lon="-3.38093">
        <ele>82.7</ele>
        <time>2010-08-13T07:08:46Z</time>
      </trkpt>
      <trkpt lat="47.72805" lon="-3.3806">
        <ele>83</ele>
        <time>2010-08-13T07:08:55Z</time>
      </trkpt>
      <trkpt lat="47.72777" lon="-3.38037">
        <ele>83.2</ele>
        <time>2010-08-13T07:08:59Z</time>
      </trkpt>
      <trkpt lat="47.72741" lon="-3.37983">
        <ele>83.5</ele>
        <time>2010-08-13T07:09:07Z</time>
      </trkpt>
      <trkpt lat="47.72719" lon="-3.37923">
        <ele>83.8</ele>
        <time>2010-08-13T07:09:16Z</time>
      </trkpt>
      <trkpt lat="47.72705" lon="-3.37851">
        <ele>84.1</ele>
        <time>2010-08-13T07:09:25Z</time>
      </trkpt>
      <trkpt lat="47.72695" lon="-3.37773">
        <ele>84.5</ele>
        <time>2010-08-13T07:09:34Z</time>
      </trkpt>
      <trkpt lat="47.72696" lon="-3.37756">
        <ele>84.5</ele>
        <time>2010-08-13T07:09:36Z</time>
      </trkpt>
      <trkpt lat="47.72677" lon="-3.37693">
        <ele>84.8</ele>
        <time>2010-08-13T07:09:44Z</time>
      </trkpt>
      <trkpt lat="47.72654" lon="-3.37632">
        <ele>85.2</ele>
        <time>2010-08-13T07:09:52Z</time>
      </trkpt>
      <trkpt lat="47.72612" lon="-3.37605">
        <ele>85.5</ele>
        <time>2010-08-13T07:10:03Z</time>
      </trkpt>
      <trkpt lat="47.72563" lon="-3.3761">
        <ele>85.8</ele>
        <time>2010-08-13T07:10:10Z</time>
      </trkpt>
      <trkpt lat="47.72518" lon="-3.37636">
        <ele>86</ele>
        <time>2010-08-13T07:10:16Z</time>
      </trkpt>
      <trkpt lat="47.7247" lon="-3.37658">
        <ele>86.2</ele>
        <time>2010-08-13T07:10:22Z</time>
      </trkpt>
      <trkpt lat="47.72421" lon="-3.37673">
        <ele>86.5</ele>
        <time>2010-08-13T07:10:29Z</time>
      </trkpt>
      <trkpt lat="47.72376" lon="-3.37688">
        <ele>86.8</ele>
        <time>2010-08-13T07:10:36Z</time>
      </trkpt>
      <trkpt lat="47.72332" lon="-3.37719">
        <ele>87.1</ele>
        <time>2010-08-13T07:10:44Z</time>
      </trkpt>
      <trkpt lat="47.72312" lon="-3.37729">
        <ele>87.2</ele>
        <time>2010-08-13T07:10:48Z</time>
      </trkpt>
      <trkpt lat="47.72303" lon="-3.37721">
        <ele>87.3</ele>
        <time>2010-08-13T07:10:50Z</time>
      </trkpt>
      <trkpt lat="47.72292" lon="-3.37696">
        <ele>87.5</ele>
        <time>2010-08-13T07:10:56Z</time>
      </trkpt>
      <trkpt lat="47.72251" lon="-3.37654">
        <ele>87.9</ele>
        <time>2010-08-13T07:11:07Z</time>
      </trkpt>
      <trkpt lat="47.7221" lon="-3.37608">
        <ele>88.3</ele>
        <time>2010-08-13T07:11:18Z</time>
      </trkpt>
      <trkpt lat="47.72167" lon="-3.3758">
        <ele>88.8</ele>
        <time>2010-08-13T07:11:29Z</time>
      </trkpt>
      <trkpt lat="47.72117" lon="-3.37585">
        <ele>89</ele>
        <time>2010-08-13T07:11:36Z</time>
      </trkpt>
      <trkpt lat="47.72074" lon="-3.37614">
        <ele>89.4</ele>
        <time>2010-08-13T07:11:47Z</time>
      </trkpt>
      <trkpt lat="47.72033" lon="-3.37649">
        <ele>89.7</ele>
        <time>2010-08-13T07:11:56Z</time>
      </trkpt>
      <trkpt lat="47.71994" lon="-3.37692">
        <ele>89.6</ele>
        <time>2010-08-13T07:12:07Z</time>
      </trkpt>
      <trkpt lat="47.71958" lon="-3.37739">
        <ele>88.5</ele>
        <time>2010-08-13T07:12:17Z</time>
      </trkpt>
      <trkpt lat="47.71925" lon="-3.37789">
        <ele>87.6</ele>
        <time>2010-08-13T07:12:26Z</time>
      </trkpt>
      <trkpt lat="47.71892" lon="-3.37835">
        <ele>86.6</ele>
        <time>2010-08-13T07:12:36Z</time>
      </trkpt>
      <trkpt lat="47.71868" lon="-3.37875">
        <ele>85.7</ele>
        <time>2010-08-13T07:12:44Z</time>
      </trkpt>
      <trkpt lat="47.71865" lon="-3.37942">
        <ele>84.7</ele>
        <time>2010-08-13T07:12:55Z</time>
      </trkpt>
      <trkpt lat="47.71887" lon="-3.38006">
        <ele>83.6</ele>
        <time>2010-08-13T07:13:05Z</time>
      </trkpt>
      <trkpt lat="47.7187" lon="-3.38069">
        <ele>82.2</ele>
        <time>2010-08-13T07:13:19Z</time>
      </trkpt>
      <trkpt lat="47.71823" lon="-3.38094">
        <ele>81.4</ele>
        <time>2010-08-13T07:13:27Z</time>
      </trkpt>
      <trkpt lat="47.71776" lon="-3.38104">
        <ele>80.7</ele>
        <time>2010-08-13T07:13:33Z</time>
      </trkpt>
      <trkpt lat="47.71729" lon="-3.3812">
        <ele>80.1</ele>
        <time>2010-08-13T07:13:41Z</time>
      </trkpt>
      <trkpt lat="47.71683" lon="-3.38139">
        <ele>81.5</ele>
        <time>2010-08-13T07:13:49Z</time>
      </trkpt>
      <trkpt lat="47.71641" lon="-3.38171">
        <ele>83</ele>
        <time>2010-08-13T07:13:58Z</time>
      </trkpt>
      <trkpt lat="47.716" lon="-3.38202">
        <ele>84.4</ele>
        <time>2010-08-13T07:14:07Z</time>
      </trkpt>
      <trkpt lat="47.71559" lon="-3.38216">
        <ele>85.6</ele>
        <time>2010-08-13T07:14:14Z</time>
      </trkpt>
      <trkpt lat="47.71519" lon="-3.38213">
        <ele>86.8</ele>
        <time>2010-08-13T07:14:21Z</time>
      </trkpt>
      <trkpt lat="47.71491" lon="-3.38264">
        <ele>89.3</ele>
        <time>2010-08-13T07:14:37Z</time>
      </trkpt>
      <trkpt lat="47.71488" lon="-3.38291">
        <ele>90.4</ele>
        <time>2010-08-13T07:14:43Z</time>
      </trkpt>
      <trkpt lat="47.71466" lon="-3.38329">
        <ele>92.4</ele>
        <time>2010-08-13T07:14:56Z</time>
      </trkpt>
      <trkpt lat="47.7141" lon="-3.38356">
        <ele>94</ele>
        <time>2010-08-13T07:15:05Z</time>
      </trkpt>
      <trkpt lat="47.71364" lon="-3.38374">
        <ele>93.2</ele>
        <time>2010-08-13T07:15:13Z</time>
      </trkpt>
      <trkpt lat="47.71337" lon="-3.38415">
        <ele>92.6</ele>
        <time>2010-08-13T07:15:19Z</time>
      </trkpt>
      <trkpt lat="47.71322" lon="-3.38485">
        <ele>91.7</ele>
        <time>2010-08-13T07:15:28Z</time>
      </trkpt>
      <trkpt lat="47.71307" lon="-3.38553">
        <ele>90.9</ele>
        <time>2010-08-13T07:15:35Z</time>
      </trkpt>
      <trkpt lat="47.7129" lon="-3.38615">
        <ele>89.8</ele>
        <time>2010-08-13T07:15:46Z</time>
      </trkpt>
      <trkpt lat="47.7131" lon="-3.38679">
        <ele>88.6</ele>
        <time>2010-08-13T07:15:58Z</time>
      </trkpt>
      <trkpt lat="47.71344" lon="-3.38727">
        <ele>87.7</ele>
        <time>2010-08-13T07:16:06Z</time>
      </trkpt>
      <trkpt lat="47.71399" lon="-3.38766">
        <ele>86.9</ele>
        <time>2010-08-13T07:16:14Z</time>
      </trkpt>
      <trkpt lat="47.71445" lon="-3.38762">
        <ele>85.9</ele>
        <time>2010-08-13T07:16:23Z</time>
      </trkpt>
      <trkpt lat="47.71491" lon="-3.38765">
        <ele>85</ele>
        <time>2010-08-13T07:16:32Z</time>
      </trkpt>
      <trkpt lat="47.71536" lon="-3.38784">
        <ele>84</ele>
        <time>2010-08-13T07:16:42Z</time>
      </trkpt>
      <trkpt lat="47.71562" lon="-3.38807">
        <ele>86.7</ele>
        <time>2010-08-13T07:16:49Z</time>
      </trkpt>
      <trkpt lat="47.71551" lon="-3.38873">
        <ele>90.3</ele>
        <time>2010-08-13T07:17:00Z</time>
      </trkpt>
      <trkpt lat="47.71532" lon="-3.38934">
        <ele>94</ele>
        <time>2010-08-13T07:17:11Z</time>
      </trkpt>
      <trkpt lat="47.71516" lon="-3.38998">
        <ele>100.8</ele>
        <time>2010-08-13T07:17:22Z</time>
      </trkpt>
      <trkpt lat="47.71522" lon="-3.39106">
        <ele>106</ele>
        <time>2010-08-13T07:17:31Z</time>
      </trkpt>
      <trkpt lat="47.71541" lon="-3.39171">
        <ele>105.5</ele>
        <time>2010-08-13T07:17:46Z</time>
      </trkpt>
      <trkpt lat="47.7156" lon="-3.39232">
        <ele>105.1</ele>
        <time>2010-08-13T07:17:57Z</time>
      </trkpt>
      <trkpt lat="47.71583" lon="-3.39293">
        <ele>104.7</ele>
        <time>2010-08-13T07:18:11Z</time>
      </trkpt>
      <trkpt lat="47.716" lon="-3.39359">
        <ele>104.3</ele>
        <time>2010-08-13T07:18:23Z</time>
      </trkpt>
      <trkpt lat="47.71609" lon="-3.39427">
        <ele>104</ele>
        <time>2010-08-13T07:18:33Z</time>
      </trkpt>
      <trkpt lat="47.71615" lon="-3.39497">
        <ele>103.6</ele>
        <time>2010-08-13T07:18:42Z</time>
      </trkpt>
      <trkpt lat="47.71615" lon="-3.39521">
        <ele>103.5</ele>
        <time>2010-08-13T07:18:46Z</time>
      </trkpt>
      <trkpt lat="47.71602" lon="-3.39533">
        <ele>103.5</ele>
        <time>2010-08-13T07:18:48Z</time>
      </trkpt>
      <trkpt lat="47.71539" lon="-3.39521">
        <ele>103.3</ele>
        <time>2010-08-13T07:18:54Z</time>
      </trkpt>
      <trkpt lat="47.71491" lon="-3.39525">
        <ele>102.9</ele>
        <time>2010-08-13T07:19:04Z</time>
      </trkpt>
      <trkpt lat="47.71443" lon="-3.39519">
        <ele>102.6</ele>
        <time>2010-08-13T07:19:15Z</time>
      </trkpt>
      <trkpt lat="47.71397" lon="-3.39538">
        <ele>102.2</ele>
        <time>2010-08-13T07:19:26Z</time>
      </trkpt>
      <trkpt lat="47.71359" lon="-3.39588">
        <ele>101.9</ele>
        <time>2010-08-13T07:19:36Z</time>
      </trkpt>
      <trkpt lat="47.71307" lon="-3.39596">
        <ele>101.5</ele>
        <time>2010-08-13T07:19:46Z</time>
      </trkpt>
      <trkpt lat="47.71303" lon="-3.39595">
        <ele>101.5</ele>
        <time>2010-08-13T07:19:47Z</time>
      </trkpt>
      <trkpt lat="47.71275" lon="-3.39526">
        <ele>101.2</ele>
        <time>2010-08-13T07:19:58Z</time>
      </trkpt>
      <trkpt lat="47.71265" lon="-3.39487">
        <ele>100.3</ele>
        <time>2010-08-13T07:20:23Z</time>
      </trkpt>
      <trkpt lat="47.71242" lon="-3.3944">
        <ele>99.9</ele>
        <time>2010-08-13T07:20:36Z</time>
      </trkpt>
      <trkpt lat="47.71209" lon="-3.39424">
        <ele>99.7</ele>
        <time>2010-08-13T07:20:41Z</time>
      </trkpt>
      <trkpt lat="47.71177" lon="-3.39433">
        <ele>99.6</ele>
        <time>2010-08-13T07:20:46Z</time>
      </trkpt>
      <trkpt lat="47.71148" lon="-3.39519">
        <ele>99.4</ele>
        <time>2010-08-13T07:20:51Z</time>
      </trkpt>
      <trkpt lat="47.71119" lon="-3.39579">
        <ele>99</ele>
        <time>2010-08-13T07:21:01Z</time>
      </trkpt>
      <trkpt lat="47.71107" lon="-3.39577">
        <ele>99</ele>
        <time>2010-08-13T07:21:04Z</time>
      </trkpt>
      <trkpt lat="47.71078" lon="-3.39523">
        <ele>98.4</ele>
        <time>2010-08-13T07:21:20Z</time>
      </trkpt>
      <trkpt lat="47.71053" lon="-3.39464">
        <ele>98.2</ele>
        <time>2010-08-13T07:21:28Z</time>
      </trkpt>
      <trkpt lat="47.71023" lon="-3.3941">
        <ele>97.8</ele>
        <time>2010-08-13T07:21:38Z</time>
      </trkpt>
      <trkpt lat="47.70981" lon="-3.39388">
        <ele>97.5</ele>
        <time>2010-08-13T07:21:48Z</time>
      </trkpt>
      <trkpt lat="47.70948" lon="-3.39435">
        <ele>97.3</ele>
        <time>2010-08-13T07:21:55Z</time>
      </trkpt>
      <trkpt lat="47.70925" lon="-3.39496">
        <ele>97.1</ele>
        <time>2010-08-13T07:22:00Z</time>
      </trkpt>
      <trkpt lat="47.70903" lon="-3.39556">
        <ele>96.9</ele>
        <time>2010-08-13T07:22:06Z</time>
      </trkpt>
      <trkpt lat="47.70881" lon="-3.39588">
        <ele>96.8</ele>
        <time>2010-08-13T07:22:10Z</time>
      </trkpt>
      <trkpt lat="47.70846" lon="-3.39539">
        <ele>96.6</ele>
        <time>2010-08-13T07:22:16Z</time>
      </trkpt>
      <trkpt lat="47.70828" lon="-3.39517">
        <ele>96.4</ele>
        <time>2010-08-13T07:22:21Z</time>
      </trkpt>
      <trkpt lat="47.70816" lon="-3.39565">
        <ele>96.2</ele>
        <time>2010-08-13T07:22:29Z</time>
      </trkpt>
      <trkpt lat="47.70773" lon="-3.39535">
        <ele>87.5</ele>
        <time>2010-08-13T07:22:38Z</time>
      </trkpt>
      <trkpt lat="47.70731" lon="-3.39501">
        <ele>82.5</ele>
        <time>2010-08-13T07:22:46Z</time>
      </trkpt>
      <trkpt lat="47.70692" lon="-3.39455">
        <ele>85.6</ele>
        <time>2010-08-13T07:22:53Z</time>
      </trkpt>
      <trkpt lat="47.70683" lon="-3.39434">
        <ele>87.1</ele>
        <time>2010-08-13T07:22:57Z</time>
      </trkpt>
      <trkpt lat="47.7063" lon="-3.39438">
        <ele>94.2</ele>
        <time>2010-08-13T07:23:14Z</time>
      </trkpt>
      <trkpt lat="47.70614" lon="-3.39414">
        <ele>96.8</ele>
        <time>2010-08-13T07:23:20Z</time>
      </trkpt>
      <trkpt lat="47.70619" lon="-3.39367">
        <ele>100.5</ele>
        <time>2010-08-13T07:23:30Z</time>
      </trkpt>
      <trkpt lat="47.70575" lon="-3.39344">
        <ele>104.7</ele>
        <time>2010-08-13T07:23:41Z</time>
      </trkpt>
      <trkpt lat="47.70555" lon="-3.39352">
        <ele>107.1</ele>
        <time>2010-08-13T07:23:48Z</time>
      </trkpt>
      <trkpt lat="47.70527" lon="-3.39419">
        <ele>111</ele>
        <time>2010-08-13T07:23:58Z</time>
      </trkpt>
      <trkpt lat="47.70482" lon="-3.39455">
        <ele>108.7</ele>
        <time>2010-08-13T07:24:14Z</time>
      </trkpt>
      <trkpt lat="47.70458" lon="-3.39481">
        <ele>107.2</ele>
        <time>2010-08-13T07:24:25Z</time>
      </trkpt>
      <trkpt lat="47.70415" lon="-3.39501">
        <ele>105.7</ele>
        <time>2010-08-13T07:24:35Z</time>
      </trkpt>
      <trkpt lat="47.70381" lon="-3.39547">
        <ele>103.6</ele>
        <time>2010-08-13T07:24:49Z</time>
      </trkpt>
      <trkpt lat="47.70401" lon="-3.39612">
        <ele>102.4</ele>
        <time>2010-08-13T07:24:57Z</time>
      </trkpt>
      <trkpt lat="47.70428" lon="-3.39668">
        <ele>101.3</ele>
        <time>2010-08-13T07:25:05Z</time>
      </trkpt>
      <trkpt lat="47.70468" lon="-3.397">
        <ele>100</ele>
        <time>2010-08-13T07:25:14Z</time>
      </trkpt>
      <trkpt lat="47.70519" lon="-3.39725">
        <ele>97.5</ele>
        <time>2010-08-13T07:25:24Z</time>
      </trkpt>
      <trkpt lat="47.70567" lon="-3.39759">
        <ele>94.5</ele>
        <time>2010-08-13T07:25:36Z</time>
      </trkpt>
      <trkpt lat="47.70611" lon="-3.39794">
        <ele>91.7</ele>
        <time>2010-08-13T07:25:47Z</time>
      </trkpt>
      <trkpt lat="47.70658" lon="-3.39826">
        <ele>89.1</ele>
        <time>2010-08-13T07:25:58Z</time>
      </trkpt>
      <trkpt lat="47.70694" lon="-3.39864">
        <ele>87.2</ele>
        <time>2010-08-13T07:26:06Z</time>
      </trkpt>
      <trkpt lat="47.7074" lon="-3.39854">
        <ele>78.2</ele>
        <time>2010-08-13T07:26:28Z</time>
      </trkpt>
      <trkpt lat="47.70784" lon="-3.39875">
        <ele>83.2</ele>
        <time>2010-08-13T07:26:40Z</time>
      </trkpt>
      <trkpt lat="47.70804" lon="-3.39888">
        <ele>86.8</ele>
        <time>2010-08-13T07:26:48Z</time>
      </trkpt>
      <trkpt lat="47.70833" lon="-3.39876">
        <ele>93.5</ele>
        <time>2010-08-13T07:27:04Z</time>
      </trkpt>
      <trkpt lat="47.70902" lon="-3.39862">
        <ele>99.6</ele>
        <time>2010-08-13T07:27:26Z</time>
      </trkpt>
      <trkpt lat="47.70938" lon="-3.39824">
        <ele>100.8</ele>
        <time>2010-08-13T07:27:41Z</time>
      </trkpt>
      <trkpt lat="47.70943" lon="-3.39807">
        <ele>102.1</ele>
        <time>2010-08-13T07:28:00Z</time>
      </trkpt>
      <trkpt lat="47.7099" lon="-3.39809">
        <ele>103.8</ele>
        <time>2010-08-13T07:28:22Z</time>
      </trkpt>
      <trkpt lat="47.71016" lon="-3.39809">
        <ele>104.5</ele>
        <time>2010-08-13T07:28:31Z</time>
      </trkpt>
      <trkpt lat="47.71024" lon="-3.39859">
        <ele>106.7</ele>
        <time>2010-08-13T07:29:02Z</time>
      </trkpt>
      <trkpt lat="47.71012" lon="-3.39929">
        <ele>107.9</ele>
        <time>2010-08-13T07:29:17Z</time>
      </trkpt>
      <trkpt lat="47.70998" lon="-3.39995">
        <ele>108.3</ele>
        <time>2010-08-13T07:29:24Z</time>
      </trkpt>
      <trkpt lat="47.70979" lon="-3.40059">
        <ele>108.9</ele>
        <time>2010-08-13T07:29:32Z</time>
      </trkpt>
      <trkpt lat="47.70976" lon="-3.4009">
        <ele>108.5</ele>
        <time>2010-08-13T07:29:39Z</time>
      </trkpt>
      <trkpt lat="47.70987" lon="-3.40101">
        <ele>107.1</ele>
        <time>2010-08-13T07:30:00Z</time>
      </trkpt>
      <trkpt lat="47.7094" lon="-3.40105">
        <ele>106</ele>
        <time>2010-08-13T07:30:16Z</time>
      </trkpt>
      <trkpt lat="47.70897" lon="-3.40126">
        <ele>105.4</ele>
        <time>2010-08-13T07:30:25Z</time>
      </trkpt>
      <trkpt lat="47.70857" lon="-3.40073">
        <ele>104.5</ele>
        <time>2010-08-13T07:30:37Z</time>
      </trkpt>
      <trkpt lat="47.70819" lon="-3.40046">
        <ele>103.8</ele>
        <time>2010-08-13T07:30:47Z</time>
      </trkpt>
      <trkpt lat="47.70792" lon="-3.40104">
        <ele>102.5</ele>
        <time>2010-08-13T07:31:06Z</time>
      </trkpt>
      <trkpt lat="47.70776" lon="-3.40182">
        <ele>101.7</ele>
        <time>2010-08-13T07:31:17Z</time>
      </trkpt>
      <trkpt lat="47.70772" lon="-3.40222">
        <ele>101.3</ele>
        <time>2010-08-13T07:31:23Z</time>
      </trkpt>
      <trkpt lat="47.70793" lon="-3.40281">
        <ele>99.4</ele>
        <time>2010-08-13T07:31:50Z</time>
      </trkpt>
      <trkpt lat="47.70817" lon="-3.4032">
        <ele>98.5</ele>
        <time>2010-08-13T07:32:03Z</time>
      </trkpt>
      <trkpt lat="47.70821" lon="-3.40338">
        <ele>98</ele>
        <time>2010-08-13T07:32:10Z</time>
      </trkpt>
      <trkpt lat="47.70781" lon="-3.40376">
        <ele>97.4</ele>
        <time>2010-08-13T07:32:26Z</time>
      </trkpt>
      <trkpt lat="47.70752" lon="-3.40431">
        <ele>97</ele>
        <time>2010-08-13T07:32:35Z</time>
      </trkpt>
      <trkpt lat="47.70738" lon="-3.40497">
        <ele>96.5</ele>
        <time>2010-08-13T07:32:50Z</time>
      </trkpt>
      <trkpt lat="47.70735" lon="-3.40564">
        <ele>96</ele>
        <time>2010-08-13T07:33:02Z</time>
      </trkpt>
      <trkpt lat="47.70735" lon="-3.40636">
        <ele>95.7</ele>
        <time>2010-08-13T07:33:09Z</time>
      </trkpt>
      <trkpt lat="47.7073" lon="-3.40555">
        <ele>95.1</ele>
        <time>2010-08-13T07:33:25Z</time>
      </trkpt>
      <trkpt lat="47.70729" lon="-3.40522">
        <ele>95</ele>
        <time>2010-08-13T07:33:28Z</time>
      </trkpt>
      <trkpt lat="47.70756" lon="-3.4046">
        <ele>94.7</ele>
        <time>2010-08-13T07:33:37Z</time>
      </trkpt>
      <trkpt lat="47.70781" lon="-3.40402">
        <ele>94.2</ele>
        <time>2010-08-13T07:33:48Z</time>
      </trkpt>
      <trkpt lat="47.70824" lon="-3.40373">
        <ele>93.8</ele>
        <time>2010-08-13T07:33:59Z</time>
      </trkpt>
      <trkpt lat="47.70846" lon="-3.40426">
        <ele>93.3</ele>
        <time>2010-08-13T07:34:12Z</time>
      </trkpt>
      <trkpt lat="47.70844" lon="-3.40457">
        <ele>93.1</ele>
        <time>2010-08-13T07:34:17Z</time>
      </trkpt>
      <trkpt lat="47.70875" lon="-3.40506">
        <ele>92.8</ele>
        <time>2010-08-13T07:34:24Z</time>
      </trkpt>
      <trkpt lat="47.70898" lon="-3.40543">
        <ele>92.6</ele>
        <time>2010-08-13T07:34:31Z</time>
      </trkpt>
      <trkpt lat="47.70903" lon="-3.40613">
        <ele>92.2</ele>
        <time>2010-08-13T07:34:40Z</time>
      </trkpt>
      <trkpt lat="47.70908" lon="-3.40673">
        <ele>91.9</ele>
        <time>2010-08-13T07:34:49Z</time>
      </trkpt>
      <trkpt lat="47.70897" lon="-3.40724">
        <ele>91.6</ele>
        <time>2010-08-13T07:34:57Z</time>
      </trkpt>
      <trkpt lat="47.70867" lon="-3.4074">
        <ele>91.1</ele>
        <time>2010-08-13T07:35:10Z</time>
      </trkpt>
      <trkpt lat="47.7086" lon="-3.4075">
        <ele>90.6</ele>
        <time>2010-08-13T07:35:22Z</time>
      </trkpt>
      <trkpt lat="47.70813" lon="-3.40755">
        <ele>89.6</ele>
        <time>2010-08-13T07:35:47Z</time>
      </trkpt>
      <trkpt lat="47.70767" lon="-3.40758">
        <ele>89.3</ele>
        <time>2010-08-13T07:35:57Z</time>
      </trkpt>
      <trkpt lat="47.70759" lon="-3.40756">
        <ele>89.2</ele>
        <time>2010-08-13T07:35:59Z</time>
      </trkpt>
      <trkpt lat="47.70739" lon="-3.40719">
        <ele>88.8</ele>
        <time>2010-08-13T07:36:08Z</time>
      </trkpt>
      <trkpt lat="47.70729" lon="-3.40719">
        <ele>87</ele>
        <time>2010-08-13T07:36:56Z</time>
      </trkpt>
      <trkpt lat="47.70711" lon="-3.40783">
        <ele>86.6</ele>
        <time>2010-08-13T07:37:10Z</time>
      </trkpt>
      <trkpt lat="47.70699" lon="-3.40849">
        <ele>86.1</ele>
        <time>2010-08-13T07:37:25Z</time>
      </trkpt>
      <trkpt lat="47.70683" lon="-3.40915">
        <ele>85.6</ele>
        <time>2010-08-13T07:37:41Z</time>
      </trkpt>
      <trkpt lat="47.70663" lon="-3.40931">
        <ele>85.4</ele>
        <time>2010-08-13T07:37:50Z</time>
      </trkpt>
      <trkpt lat="47.70621" lon="-3.40876">
        <ele>85.1</ele>
        <time>2010-08-13T07:37:59Z</time>
      </trkpt>
      <trkpt lat="47.70582" lon="-3.40831">
        <ele>85</ele>
        <time>2010-08-13T07:38:04Z</time>
      </trkpt>
      <trkpt lat="47.70538" lon="-3.40811">
        <ele>84.8</ele>
        <time>2010-08-13T07:38:10Z</time>
      </trkpt>
      <trkpt lat="47.70484" lon="-3.40795">
        <ele>84.5</ele>
        <time>2010-08-13T07:38:18Z</time>
      </trkpt>
      <trkpt lat="47.70426" lon="-3.40793">
        <ele>84.3</ele>
        <time>2010-08-13T07:38:27Z</time>
      </trkpt>
      <trkpt lat="47.70376" lon="-3.40774">
        <ele>84</ele>
        <time>2010-08-13T07:38:35Z</time>
      </trkpt>
      <trkpt lat="47.70346" lon="-3.40767">
        <ele>83.8</ele>
        <time>2010-08-13T07:38:44Z</time>
      </trkpt>
      <trkpt lat="47.7031" lon="-3.40808">
        <ele>83.5</ele>
        <time>2010-08-13T07:38:54Z</time>
      </trkpt>
      <trkpt lat="47.70283" lon="-3.40866">
        <ele>83.2</ele>
        <time>2010-08-13T07:39:02Z</time>
      </trkpt>
      <trkpt lat="47.70264" lon="-3.40929">
        <ele>82.9</ele>
        <time>2010-08-13T07:39:11Z</time>
      </trkpt>
      <trkpt lat="47.70268" lon="-3.40996">
        <ele>82.6</ele>
        <time>2010-08-13T07:39:21Z</time>
      </trkpt>
      <trkpt lat="47.70299" lon="-3.41043">
        <ele>82.4</ele>
        <time>2010-08-13T07:39:29Z</time>
      </trkpt>
      <trkpt lat="47.70279" lon="-3.41106">
        <ele>82</ele>
        <time>2010-08-13T07:39:43Z</time>
      </trkpt>
      <trkpt lat="47.703" lon="-3.41165">
        <ele>81.7</ele>
        <time>2010-08-13T07:39:52Z</time>
      </trkpt>
      <trkpt lat="47.70318" lon="-3.41209">
        <ele>81.5</ele>
        <time>2010-08-13T07:40:01Z</time>
      </trkpt>
      <trkpt lat="47.70282" lon="-3.41217">
        <ele>81.3</ele>
        <time>2010-08-13T07:40:07Z</time>
      </trkpt>
      <trkpt lat="47.70253" lon="-3.41275">
        <ele>81</ele>
        <time>2010-08-13T07:40:16Z</time>
      </trkpt>
      <trkpt lat="47.70241" lon="-3.41297">
        <ele>80.7</ele>
        <time>2010-08-13T07:40:25Z</time>
      </trkpt>
      <trkpt lat="47.70198" lon="-3.41322">
        <ele>80.3</ele>
        <time>2010-08-13T07:40:39Z</time>
      </trkpt>
      <trkpt lat="47.70161" lon="-3.41367">
        <ele>80</ele>
        <time>2010-08-13T07:40:50Z</time>
      </trkpt>
      <trkpt lat="47.70139" lon="-3.4143">
        <ele>79.7</ele>
        <time>2010-08-13T07:40:59Z</time>
      </trkpt>
      <trkpt lat="47.70119" lon="-3.41491">
        <ele>79.4</ele>
        <time>2010-08-13T07:41:08Z</time>
      </trkpt>
      <trkpt lat="47.70095" lon="-3.41548">
        <ele>79.2</ele>
        <time>2010-08-13T07:41:17Z</time>
      </trkpt>
      <trkpt lat="47.70076" lon="-3.41602">
        <ele>78.9</ele>
        <time>2010-08-13T07:41:25Z</time>
      </trkpt>
      <trkpt lat="47.70083" lon="-3.41669">
        <ele>78.7</ele>
        <time>2010-08-13T07:41:33Z</time>
      </trkpt>
      <trkpt lat="47.70094" lon="-3.4174">
        <ele>78.4</ele>
        <time>2010-08-13T07:41:42Z</time>
      </trkpt>
      <trkpt lat="47.70089" lon="-3.41811">
        <ele>78.2</ele>
        <time>2010-08-13T07:41:49Z</time>
      </trkpt>
      <trkpt lat="47.70089" lon="-3.41909">
        <ele>78</ele>
        <time>2010-08-13T07:41:57Z</time>
      </trkpt>
      <trkpt lat="47.70098" lon="-3.4198">
        <ele>77.7</ele>
        <time>2010-08-13T07:42:08Z</time>
      </trkpt>
      <trkpt lat="47.70105" lon="-3.4205">
        <ele>77.4</ele>
        <time>2010-08-13T07:42:16Z</time>
      </trkpt>
      <trkpt lat="47.70136" lon="-3.42098">
        <ele>77.1</ele>
        <time>2010-08-13T07:42:25Z</time>
      </trkpt>
      <trkpt lat="47.70177" lon="-3.42131">
        <ele>76.6</ele>
        <time>2010-08-13T07:42:34Z</time>
      </trkpt>
      <trkpt lat="47.70213" lon="-3.42179">
        <ele>75.7</ele>
        <time>2010-08-13T07:42:43Z</time>
      </trkpt>
      <trkpt lat="47.70252" lon="-3.42217">
        <ele>74.8</ele>
        <time>2010-08-13T07:42:52Z</time>
      </trkpt>
      <trkpt lat="47.70298" lon="-3.4224">
        <ele>74</ele>
        <time>2010-08-13T07:43:00Z</time>
      </trkpt>
      <trkpt lat="47.70334" lon="-3.42286">
        <ele>73.2</ele>
        <time>2010-08-13T07:43:09Z</time>
      </trkpt>
      <trkpt lat="47.70377" lon="-3.42314">
        <ele>72.3</ele>
        <time>2010-08-13T07:43:17Z</time>
      </trkpt>
      <trkpt lat="47.70418" lon="-3.42346">
        <ele>71.5</ele>
        <time>2010-08-13T07:43:26Z</time>
      </trkpt>
      <trkpt lat="47.70464" lon="-3.42368">
        <ele>70.6</ele>
        <time>2010-08-13T07:43:35Z</time>
      </trkpt>
      <trkpt lat="47.7051" lon="-3.42421">
        <ele>69.5</ele>
        <time>2010-08-13T07:43:46Z</time>
      </trkpt>
      <trkpt lat="47.70543" lon="-3.42481">
        <ele>68.5</ele>
        <time>2010-08-13T07:43:56Z</time>
      </trkpt>
      <trkpt lat="47.70541" lon="-3.42561">
        <ele>67.8</ele>
        <time>2010-08-13T07:44:03Z</time>
      </trkpt>
      <trkpt lat="47.70539" lon="-3.42582">
        <ele>67</ele>
        <time>2010-08-13T07:44:12Z</time>
      </trkpt>
      <trkpt lat="47.7055" lon="-3.42589">
        <ele>67.6</ele>
        <time>2010-08-13T07:44:18Z</time>
      </trkpt>
      <trkpt lat="47.70557" lon="-3.42573">
        <ele>72.2</ele>
        <time>2010-08-13T07:45:07Z</time>
      </trkpt>
      <trkpt lat="47.70604" lon="-3.42565">
        <ele>73.4</ele>
        <time>2010-08-13T07:45:20Z</time>
      </trkpt>
      <trkpt lat="47.7065" lon="-3.42566">
        <ele>74.5</ele>
        <time>2010-08-13T07:45:31Z</time>
      </trkpt>
      <trkpt lat="47.70676" lon="-3.42536">
        <ele>75.4</ele>
        <time>2010-08-13T07:45:41Z</time>
      </trkpt>
      <trkpt lat="47.70664" lon="-3.42558">
        <ele>76.7</ele>
        <time>2010-08-13T07:45:55Z</time>
      </trkpt>
      <trkpt lat="47.70687" lon="-3.42563">
        <ele>77.6</ele>
        <time>2010-08-13T07:46:03Z</time>
      </trkpt>
      <trkpt lat="47.70716" lon="-3.42621">
        <ele>79.4</ele>
        <time>2010-08-13T07:46:19Z</time>
      </trkpt>
      <trkpt lat="47.70736" lon="-3.42682">
        <ele>80.3</ele>
        <time>2010-08-13T07:46:27Z</time>
      </trkpt>
      <trkpt lat="47.70791" lon="-3.42721">
        <ele>81.4</ele>
        <time>2010-08-13T07:46:36Z</time>
      </trkpt>
      <trkpt lat="47.70812" lon="-3.42704">
        <ele>82.5</ele>
        <time>2010-08-13T07:46:46Z</time>
      </trkpt>
      <trkpt lat="47.7082" lon="-3.42686">
        <ele>84.2</ele>
        <time>2010-08-13T07:47:01Z</time>
      </trkpt>
      <trkpt lat="47.70866" lon="-3.42686">
        <ele>85.8</ele>
        <time>2010-08-13T07:47:15Z</time>
      </trkpt>
      <trkpt lat="47.70912" lon="-3.42694">
        <ele>86.9</ele>
        <time>2010-08-13T07:47:25Z</time>
      </trkpt>
      <trkpt lat="47.70931" lon="-3.42697">
        <ele>87.4</ele>
        <time>2010-08-13T07:47:30Z</time>
      </trkpt>
      <trkpt lat="47.70941" lon="-3.4276">
        <ele>90</ele>
        <time>2010-08-13T07:47:52Z</time>
      </trkpt>
      <trkpt lat="47.70923" lon="-3.42826">
        <ele>90.9</ele>
        <time>2010-08-13T07:48:08Z</time>
      </trkpt>
      <trkpt lat="47.70905" lon="-3.42892">
        <ele>91.5</ele>
        <time>2010-08-13T07:48:18Z</time>
      </trkpt>
      <trkpt lat="47.70904" lon="-3.42935">
        <ele>92</ele>
        <time>2010-08-13T07:48:26Z</time>
      </trkpt>
      <trkpt lat="47.70925" lon="-3.42968">
        <ele>92.4</ele>
        <time>2010-08-13T07:48:34Z</time>
      </trkpt>
      <trkpt lat="47.70945" lon="-3.42976">
        <ele>92.8</ele>
        <time>2010-08-13T07:48:40Z</time>
      </trkpt>
      <trkpt lat="47.7101" lon="-3.42952">
        <ele>93.6</ele>
        <time>2010-08-13T07:48:54Z</time>
      </trkpt>
      <trkpt lat="47.71077" lon="-3.42964">
        <ele>96.7</ele>
        <time>2010-08-13T07:49:49Z</time>
      </trkpt>
      <trkpt lat="47.71122" lon="-3.42984">
        <ele>97.2</ele>
        <time>2010-08-13T07:49:57Z</time>
      </trkpt>
      <trkpt lat="47.71166" lon="-3.43024">
        <ele>97.6</ele>
        <time>2010-08-13T07:50:05Z</time>
      </trkpt>
      <trkpt lat="47.7121" lon="-3.43063">
        <ele>98.4</ele>
        <time>2010-08-13T07:50:17Z</time>
      </trkpt>
      <trkpt lat="47.71256" lon="-3.43088">
        <ele>98.9</ele>
        <time>2010-08-13T07:50:27Z</time>
      </trkpt>
      <trkpt lat="47.71302" lon="-3.43101">
        <ele>99.6</ele>
        <time>2010-08-13T07:50:39Z</time>
      </trkpt>
      <trkpt lat="47.71376" lon="-3.43132">
        <ele>101.3</ele>
        <time>2010-08-13T07:51:08Z</time>
      </trkpt>
      <trkpt lat="47.71402" lon="-3.43126">
        <ele>102</ele>
        <time>2010-08-13T07:51:20Z</time>
      </trkpt>
      <trkpt lat="47.71449" lon="-3.43159">
        <ele>101.3</ele>
        <time>2010-08-13T07:51:32Z</time>
      </trkpt>
      <trkpt lat="47.71458" lon="-3.43164">
        <ele>100.9</ele>
        <time>2010-08-13T07:51:41Z</time>
      </trkpt>
      <trkpt lat="47.71494" lon="-3.43115">
        <ele>100.1</ele>
        <time>2010-08-13T07:51:54Z</time>
      </trkpt>
      <trkpt lat="47.71507" lon="-3.43047">
        <ele>99.7</ele>
        <time>2010-08-13T07:52:01Z</time>
      </trkpt>
      <trkpt lat="47.71515" lon="-3.42976">
        <ele>99.4</ele>
        <time>2010-08-13T07:52:08Z</time>
      </trkpt>
      <trkpt lat="47.71528" lon="-3.42905">
        <ele>99.1</ele>
        <time>2010-08-13T07:52:13Z</time>
      </trkpt>
      <trkpt lat="47.71545" lon="-3.42839">
        <ele>98.8</ele>
        <time>2010-08-13T07:52:19Z</time>
      </trkpt>
      <trkpt lat="47.71552" lon="-3.42816">
        <ele>98.6</ele>
        <time>2010-08-13T07:52:21Z</time>
      </trkpt>
      <trkpt lat="47.71587" lon="-3.42772">
        <ele>98.2</ele>
        <time>2010-08-13T07:52:30Z</time>
      </trkpt>
      <trkpt lat="47.71609" lon="-3.42753">
        <ele>97.8</ele>
        <time>2010-08-13T07:52:36Z</time>
      </trkpt>
      <trkpt lat="47.71632" lon="-3.42763">
        <ele>97.4</ele>
        <time>2010-08-13T07:52:44Z</time>
      </trkpt>
      <trkpt lat="47.71658" lon="-3.42747">
        <ele>96</ele>
        <time>2010-08-13T07:53:09Z</time>
      </trkpt>
      <trkpt lat="47.71666" lon="-3.42712">
        <ele>95</ele>
        <time>2010-08-13T07:53:27Z</time>
      </trkpt>
      <trkpt lat="47.71715" lon="-3.42715">
        <ele>94.3</ele>
        <time>2010-08-13T07:53:40Z</time>
      </trkpt>
      <trkpt lat="47.7176" lon="-3.42707">
        <ele>93.8</ele>
        <time>2010-08-13T07:53:49Z</time>
      </trkpt>
      <trkpt lat="47.71782" lon="-3.42692">
        <ele>93.5</ele>
        <time>2010-08-13T07:53:54Z</time>
      </trkpt>
      <trkpt lat="47.71815" lon="-3.42646">
        <ele>92.9</ele>
        <time>2010-08-13T07:54:05Z</time>
      </trkpt>
      <trkpt lat="47.7184" lon="-3.42588">
        <ele>92.3</ele>
        <time>2010-08-13T07:54:15Z</time>
      </trkpt>
      <trkpt lat="47.71857" lon="-3.42514">
        <ele>91.5</ele>
        <time>2010-08-13T07:54:30Z</time>
      </trkpt>
      <trkpt lat="47.71881" lon="-3.42481">
        <ele>91.1</ele>
        <time>2010-08-13T07:54:44Z</time>
      </trkpt>
      <trkpt lat="47.71921" lon="-3.42515">
        <ele>91.3</ele>
        <time>2010-08-13T07:54:57Z</time>
      </trkpt>
      <trkpt lat="47.71965" lon="-3.42554">
        <ele>91.5</ele>
        <time>2010-08-13T07:55:12Z</time>
      </trkpt>
      <trkpt lat="47.72006" lon="-3.42587">
        <ele>91.7</ele>
        <time>2010-08-13T07:55:25Z</time>
      </trkpt>
      <trkpt lat="47.72049" lon="-3.42616">
        <ele>91.8</ele>
        <time>2010-08-13T07:55:34Z</time>
      </trkpt>
      <trkpt lat="47.721" lon="-3.42639">
        <ele>92</ele>
        <time>2010-08-13T07:55:46Z</time>
      </trkpt>
      <trkpt lat="47.72148" lon="-3.42663">
        <ele>92.2</ele>
        <time>2010-08-13T07:55:56Z</time>
      </trkpt>
      <trkpt lat="47.72191" lon="-3.42688">
        <ele>92.3</ele>
        <time>2010-08-13T07:56:02Z</time>
      </trkpt>
      <trkpt lat="47.72239" lon="-3.42711">
        <ele>92.4</ele>
        <time>2010-08-13T07:56:09Z</time>
      </trkpt>
      <trkpt lat="47.72288" lon="-3.42732">
        <ele>92.5</ele>
        <time>2010-08-13T07:56:19Z</time>
      </trkpt>
      <trkpt lat="47.72341" lon="-3.42744">
        <ele>92.7</ele>
        <time>2010-08-13T07:56:33Z</time>
      </trkpt>
      <trkpt lat="47.72391" lon="-3.4274">
        <ele>92.9</ele>
        <time>2010-08-13T07:56:42Z</time>
      </trkpt>
      <trkpt lat="47.72436" lon="-3.42731">
        <ele>93</ele>
        <time>2010-08-13T07:56:49Z</time>
      </trkpt>
      <trkpt lat="47.72484" lon="-3.4271">
        <ele>93.2</ele>
        <time>2010-08-13T07:57:03Z</time>
      </trkpt>
      <trkpt lat="47.72493" lon="-3.42693">
        <ele>93.5</ele>
        <time>2010-08-13T07:57:22Z</time>
      </trkpt>
      <trkpt lat="47.72511" lon="-3.42757">
        <ele>94</ele>
        <time>2010-08-13T07:57:58Z</time>
      </trkpt>
      <trkpt lat="47.72514" lon="-3.42784">
        <ele>94.1</ele>
        <time>2010-08-13T07:58:02Z</time>
      </trkpt>
      <trkpt lat="47.72479" lon="-3.4283">
        <ele>94.2</ele>
        <time>2010-08-13T07:58:12Z</time>
      </trkpt>
      <trkpt lat="47.72464" lon="-3.42888">
        <ele>94.3</ele>
        <time>2010-08-13T07:58:17Z</time>
      </trkpt>
      <trkpt lat="47.7248" lon="-3.42957">
        <ele>94.6</ele>
        <time>2010-08-13T07:58:34Z</time>
      </trkpt>
      <trkpt lat="47.72476" lon="-3.43052">
        <ele>94.9</ele>
        <time>2010-08-13T07:58:54Z</time>
      </trkpt>
      <trkpt lat="47.72476" lon="-3.43152">
        <ele>95.1</ele>
        <time>2010-08-13T07:59:07Z</time>
      </trkpt>
      <trkpt lat="47.72482" lon="-3.43198">
        <ele>95.3</ele>
        <time>2010-08-13T07:59:21Z</time>
      </trkpt>
      <trkpt lat="47.72434" lon="-3.432">
        <ele>95.4</ele>
        <time>2010-08-13T07:59:30Z</time>
      </trkpt>
      <trkpt lat="47.72381" lon="-3.43175">
        <ele>95.6</ele>
        <time>2010-08-13T07:59:42Z</time>
      </trkpt>
      <trkpt lat="47.72336" lon="-3.43159">
        <ele>95.8</ele>
        <time>2010-08-13T07:59:53Z</time>
      </trkpt>
      <trkpt lat="47.72317" lon="-3.43158">
        <ele>95.9</ele>
        <time>2010-08-13T07:59:59Z</time>
      </trkpt>
      <trkpt lat="47.72266" lon="-3.43188">
        <ele>96.4</ele>
        <time>2010-08-13T08:00:30Z</time>
      </trkpt>
      <trkpt lat="47.72212" lon="-3.43222">
        <ele>96.7</ele>
        <time>2010-08-13T08:00:50Z</time>
      </trkpt>
      <trkpt lat="47.72202" lon="-3.43229">
        <ele>96.7</ele>
        <time>2010-08-13T08:00:54Z</time>
      </trkpt>
      <trkpt lat="47.72203" lon="-3.43264">
        <ele>96.8</ele>
        <time>2010-08-13T08:01:00Z</time>
      </trkpt>
      <trkpt lat="47.72242" lon="-3.43304">
        <ele>96.9</ele>
        <time>2010-08-13T08:01:08Z</time>
      </trkpt>
      <trkpt lat="47.72258" lon="-3.43304">
        <ele>97</ele>
        <time>2010-08-13T08:01:12Z</time>
      </trkpt>
      <trkpt lat="47.72294" lon="-3.43352">
        <ele>97.2</ele>
        <time>2010-08-13T08:01:22Z</time>
      </trkpt>
      <trkpt lat="47.72322" lon="-3.43384">
        <ele>97.3</ele>
        <time>2010-08-13T08:01:29Z</time>
      </trkpt>
      <trkpt lat="47.72315" lon="-3.43453">
        <ele>97.4</ele>
        <time>2010-08-13T08:01:40Z</time>
      </trkpt>
      <trkpt lat="47.72279" lon="-3.43465">
        <ele>97.7</ele>
        <time>2010-08-13T08:01:56Z</time>
      </trkpt>
      <trkpt lat="47.72285" lon="-3.43477">
        <ele>98</ele>
        <time>2010-08-13T08:02:15Z</time>
      </trkpt>
      <trkpt lat="47.72318" lon="-3.43483">
        <ele>98.1</ele>
        <time>2010-08-13T08:02:24Z</time>
      </trkpt>
      <trkpt lat="47.7232" lon="-3.43475">
        <ele>98.1</ele>
        <time>2010-08-13T08:02:27Z</time>
      </trkpt>
      <trkpt lat="47.72264" lon="-3.43466">
        <ele>98.5</ele>
        <time>2010-08-13T08:02:49Z</time>
      </trkpt>
      <trkpt lat="47.7226" lon="-3.43466">
        <ele>98.6</ele>
        <time>2010-08-13T08:02:58Z</time>
      </trkpt>
      <trkpt lat="47.7227" lon="-3.43469">
        <ele>98.6</ele>
        <time>2010-08-13T08:03:00Z</time>
      </trkpt>
      <trkpt lat="47.72277" lon="-3.43486">
        <ele>98.7</ele>
        <time>2010-08-13T08:03:04Z</time>
      </trkpt>
      <trkpt lat="47.7225" lon="-3.4352">
        <ele>98.8</ele>
        <time>2010-08-13T08:03:12Z</time>
      </trkpt>
      <trkpt lat="47.72226" lon="-3.43585">
        <ele>99</ele>
        <time>2010-08-13T08:03:23Z</time>
      </trkpt>
      <trkpt lat="47.72213" lon="-3.43664">
        <ele>99.2</ele>
        <time>2010-08-13T08:03:34Z</time>
      </trkpt>
      <trkpt lat="47.72189" lon="-3.43724">
        <ele>99.3</ele>
        <time>2010-08-13T08:03:43Z</time>
      </trkpt>
      <trkpt lat="47.72153" lon="-3.43786">
        <ele>99.5</ele>
        <time>2010-08-13T08:03:53Z</time>
      </trkpt>
      <trkpt lat="47.72122" lon="-3.43849">
        <ele>99.6</ele>
        <time>2010-08-13T08:04:02Z</time>
      </trkpt>
      <trkpt lat="47.7209" lon="-3.43897">
        <ele>99.7</ele>
        <time>2010-08-13T08:04:10Z</time>
      </trkpt>
      <trkpt lat="47.72066" lon="-3.43921">
        <ele>99.8</ele>
        <time>2010-08-13T08:04:16Z</time>
      </trkpt>
      <trkpt lat="47.72061" lon="-3.4399">
        <ele>100</ele>
        <time>2010-08-13T08:04:29Z</time>
      </trkpt>
      <trkpt lat="47.72068" lon="-3.44057">
        <ele>100.2</ele>
        <time>2010-08-13T08:04:38Z</time>
      </trkpt>
      <trkpt lat="47.72071" lon="-3.44131">
        <ele>100.3</ele>
        <time>2010-08-13T08:04:48Z</time>
      </trkpt>
      <trkpt lat="47.72073" lon="-3.4421">
        <ele>100.5</ele>
        <time>2010-08-13T08:04:59Z</time>
      </trkpt>
      <trkpt lat="47.72072" lon="-3.4428">
        <ele>100.6</ele>
        <time>2010-08-13T08:05:08Z</time>
      </trkpt>
      <trkpt lat="47.72069" lon="-3.44351">
        <ele>100.8</ele>
        <time>2010-08-13T08:05:18Z</time>
      </trkpt>
      <trkpt lat="47.72073" lon="-3.44421">
        <ele>100.9</ele>
        <time>2010-08-13T08:05:28Z</time>
      </trkpt>
      <trkpt lat="47.72118" lon="-3.44442">
        <ele>101.5</ele>
        <time>2010-08-13T08:05:37Z</time>
      </trkpt>
      <trkpt lat="47.72165" lon="-3.44431">
        <ele>102.6</ele>
        <time>2010-08-13T08:05:46Z</time>
      </trkpt>
      <trkpt lat="47.72208" lon="-3.44456">
        <ele>104.1</ele>
        <time>2010-08-13T08:05:56Z</time>
      </trkpt>
      <trkpt lat="47.72252" lon="-3.44478">
        <ele>105.4</ele>
        <time>2010-08-13T08:06:06Z</time>
      </trkpt>
      <trkpt lat="47.72302" lon="-3.44488">
        <ele>106.8</ele>
        <time>2010-08-13T08:06:17Z</time>
      </trkpt>
      <trkpt lat="47.72357" lon="-3.44498">
        <ele>108</ele>
        <time>2010-08-13T08:06:26Z</time>
      </trkpt>
      <trkpt lat="47.72402" lon="-3.44513">
        <ele>109.4</ele>
        <time>2010-08-13T08:06:35Z</time>
      </trkpt>
      <trkpt lat="47.72455" lon="-3.44538">
        <ele>110.6</ele>
        <time>2010-08-13T08:06:44Z</time>
      </trkpt>
      <trkpt lat="47.72453" lon="-3.44581">
        <ele>111.6</ele>
        <time>2010-08-13T08:06:52Z</time>
      </trkpt>
      <trkpt lat="47.72438" lon="-3.44608">
        <ele>112</ele>
        <time>2010-08-13T08:06:55Z</time>
      </trkpt>
      <trkpt lat="47.72438" lon="-3.44608">
        <ele>112</ele>
        <time>2010-08-13T08:06:55Z</time>
      </trkpt>
      <trkpt lat="47.72537" lon="-3.44753">
        <ele>90</ele>
        <time>2010-08-13T08:12:15Z</time>
      </trkpt>
      <trkpt lat="47.72535" lon="-3.44756">
        <ele>91.2</ele>
        <time>2010-08-13T08:12:23Z</time>
      </trkpt>
      <trkpt lat="47.72505" lon="-3.44807">
        <ele>93.3</ele>
        <time>2010-08-13T08:12:38Z</time>
      </trkpt>
      <trkpt lat="47.7247" lon="-3.44852">
        <ele>94.7</ele>
        <time>2010-08-13T08:12:48Z</time>
      </trkpt>
      <trkpt lat="47.7244" lon="-3.4491">
        <ele>96.1</ele>
        <time>2010-08-13T08:12:58Z</time>
      </trkpt>
      <trkpt lat="47.72425" lon="-3.44973">
        <ele>97</ele>
        <time>2010-08-13T08:13:05Z</time>
      </trkpt>
      <trkpt lat="47.72423" lon="-3.45044">
        <ele>98.2</ele>
        <time>2010-08-13T08:13:13Z</time>
      </trkpt>
      <trkpt lat="47.72426" lon="-3.45137">
        <ele>99.4</ele>
        <time>2010-08-13T08:13:22Z</time>
      </trkpt>
      <trkpt lat="47.72407" lon="-3.45199">
        <ele>98.4</ele>
        <time>2010-08-13T08:13:36Z</time>
      </trkpt>
      <trkpt lat="47.72382" lon="-3.45233">
        <ele>97.2</ele>
        <time>2010-08-13T08:13:44Z</time>
      </trkpt>
      <trkpt lat="47.72371" lon="-3.45307">
        <ele>95.9</ele>
        <time>2010-08-13T08:13:52Z</time>
      </trkpt>
      <trkpt lat="47.72381" lon="-3.4538">
        <ele>94.3</ele>
        <time>2010-08-13T08:14:02Z</time>
      </trkpt>
      <trkpt lat="47.72372" lon="-3.45432">
        <ele>90</ele>
        <time>2010-08-13T08:14:29Z</time>
      </trkpt>
      <trkpt lat="47.72354" lon="-3.45498">
        <ele>90.8</ele>
        <time>2010-08-13T08:14:42Z</time>
      </trkpt>
      <trkpt lat="47.72312" lon="-3.45537">
        <ele>91.4</ele>
        <time>2010-08-13T08:14:51Z</time>
      </trkpt>
      <trkpt lat="47.72274" lon="-3.4558">
        <ele>91.8</ele>
        <time>2010-08-13T08:14:58Z</time>
      </trkpt>
      <trkpt lat="47.72236" lon="-3.45624">
        <ele>92.3</ele>
        <time>2010-08-13T08:15:06Z</time>
      </trkpt>
      <trkpt lat="47.72206" lon="-3.45676">
        <ele>92.8</ele>
        <time>2010-08-13T08:15:14Z</time>
      </trkpt>
      <trkpt lat="47.72193" lon="-3.45713">
        <ele>93.2</ele>
        <time>2010-08-13T08:15:19Z</time>
      </trkpt>
      <trkpt lat="47.72197" lon="-3.45786">
        <ele>93.7</ele>
        <time>2010-08-13T08:15:27Z</time>
      </trkpt>
      <trkpt lat="47.72215" lon="-3.45805">
        <ele>93.8</ele>
        <time>2010-08-13T08:15:29Z</time>
      </trkpt>
      <trkpt lat="47.72257" lon="-3.45836">
        <ele>96.7</ele>
        <time>2010-08-13T08:16:16Z</time>
      </trkpt>
      <trkpt lat="47.72299" lon="-3.45864">
        <ele>97.3</ele>
        <time>2010-08-13T08:16:24Z</time>
      </trkpt>
      <trkpt lat="47.72344" lon="-3.45899">
        <ele>97.9</ele>
        <time>2010-08-13T08:16:34Z</time>
      </trkpt>
      <trkpt lat="47.72393" lon="-3.45933">
        <ele>98.7</ele>
        <time>2010-08-13T08:16:47Z</time>
      </trkpt>
      <trkpt lat="47.72439" lon="-3.45976">
        <ele>99.4</ele>
        <time>2010-08-13T08:16:58Z</time>
      </trkpt>
      <trkpt lat="47.7248" lon="-3.46023">
        <ele>99.8</ele>
        <time>2010-08-13T08:17:09Z</time>
      </trkpt>
      <trkpt lat="47.72486" lon="-3.46053">
        <ele>98.2</ele>
        <time>2010-08-13T08:17:23Z</time>
      </trkpt>
      <trkpt lat="47.72492" lon="-3.46063">
        <ele>92.7</ele>
        <time>2010-08-13T08:18:13Z</time>
      </trkpt>
      <trkpt lat="47.72461" lon="-3.46115">
        <ele>91.6</ele>
        <time>2010-08-13T08:18:23Z</time>
      </trkpt>
      <trkpt lat="47.72422" lon="-3.46149">
        <ele>90.9</ele>
        <time>2010-08-13T08:18:30Z</time>
      </trkpt>
      <trkpt lat="47.7239" lon="-3.46176">
        <ele>90.2</ele>
        <time>2010-08-13T08:18:36Z</time>
      </trkpt>
      <trkpt lat="47.72375" lon="-3.46241">
        <ele>89.3</ele>
        <time>2010-08-13T08:18:45Z</time>
      </trkpt>
      <trkpt lat="47.72373" lon="-3.4631">
        <ele>88.2</ele>
        <time>2010-08-13T08:18:54Z</time>
      </trkpt>
      <trkpt lat="47.72384" lon="-3.46358">
        <ele>87.8</ele>
        <time>2010-08-13T08:19:03Z</time>
      </trkpt>
      <trkpt lat="47.72384" lon="-3.46344">
        <ele>87.5</ele>
        <time>2010-08-13T08:19:11Z</time>
      </trkpt>
      <trkpt lat="47.7241" lon="-3.46415">
        <ele>86.9</ele>
        <time>2010-08-13T08:19:26Z</time>
      </trkpt>
      <trkpt lat="47.72435" lon="-3.46474">
        <ele>86.7</ele>
        <time>2010-08-13T08:19:32Z</time>
      </trkpt>
      <trkpt lat="47.72457" lon="-3.46539">
        <ele>86.4</ele>
        <time>2010-08-13T08:19:38Z</time>
      </trkpt>
      <trkpt lat="47.7248" lon="-3.46621">
        <ele>86.1</ele>
        <time>2010-08-13T08:19:47Z</time>
      </trkpt>
      <trkpt lat="47.72495" lon="-3.46653">
        <ele>85.8</ele>
        <time>2010-08-13T08:19:54Z</time>
      </trkpt>
      <trkpt lat="47.72512" lon="-3.46603">
        <ele>84.8</ele>
        <time>2010-08-13T08:20:22Z</time>
      </trkpt>
      <trkpt lat="47.72528" lon="-3.46656">
        <ele>84.5</ele>
        <time>2010-08-13T08:20:30Z</time>
      </trkpt>
      <trkpt lat="47.72523" lon="-3.46741">
        <ele>84.3</ele>
        <time>2010-08-13T08:20:36Z</time>
      </trkpt>
      <trkpt lat="47.72522" lon="-3.4681">
        <ele>83.9</ele>
        <time>2010-08-13T08:20:46Z</time>
      </trkpt>
      <trkpt lat="47.72534" lon="-3.46878">
        <ele>83.7</ele>
        <time>2010-08-13T08:20:53Z</time>
      </trkpt>
      <trkpt lat="47.72559" lon="-3.46938">
        <ele>83.4</ele>
        <time>2010-08-13T08:21:00Z</time>
      </trkpt>
      <trkpt lat="47.72584" lon="-3.46999">
        <ele>83.1</ele>
        <time>2010-08-13T08:21:08Z</time>
      </trkpt>
      <trkpt lat="47.72602" lon="-3.47063">
        <ele>82.8</ele>
        <time>2010-08-13T08:21:16Z</time>
      </trkpt>
      <trkpt lat="47.72628" lon="-3.47123">
        <ele>82.4</ele>
        <time>2010-08-13T08:21:26Z</time>
      </trkpt>
      <trkpt lat="47.72665" lon="-3.47176">
        <ele>81.9</ele>
        <time>2010-08-13T08:21:40Z</time>
      </trkpt>
      <trkpt lat="47.72709" lon="-3.47238">
        <ele>81.3</ele>
        <time>2010-08-13T08:21:58Z</time>
      </trkpt>
      <trkpt lat="47.72724" lon="-3.47271">
        <ele>80.9</ele>
        <time>2010-08-13T08:22:08Z</time>
      </trkpt>
      <trkpt lat="47.72725" lon="-3.47348">
        <ele>80.6</ele>
        <time>2010-08-13T08:22:17Z</time>
      </trkpt>
      <trkpt lat="47.72737" lon="-3.47428">
        <ele>80.3</ele>
        <time>2010-08-13T08:22:23Z</time>
      </trkpt>
      <trkpt lat="47.72779" lon="-3.47451">
        <ele>80.1</ele>
        <time>2010-08-13T08:22:29Z</time>
      </trkpt>
      <trkpt lat="47.72827" lon="-3.47462">
        <ele>79.8</ele>
        <time>2010-08-13T08:22:36Z</time>
      </trkpt>
      <trkpt lat="47.72872" lon="-3.4746">
        <ele>79.5</ele>
        <time>2010-08-13T08:22:44Z</time>
      </trkpt>
      <trkpt lat="47.72914" lon="-3.47456">
        <ele>79.2</ele>
        <time>2010-08-13T08:22:55Z</time>
      </trkpt>
      <trkpt lat="47.72916" lon="-3.47506">
        <ele>78.9</ele>
        <time>2010-08-13T08:23:03Z</time>
      </trkpt>
      <trkpt lat="47.72897" lon="-3.47512">
        <ele>78.7</ele>
        <time>2010-08-13T08:23:06Z</time>
      </trkpt>
      <trkpt lat="47.72889" lon="-3.47584">
        <ele>78.5</ele>
        <time>2010-08-13T08:23:13Z</time>
      </trkpt>
      <trkpt lat="47.72885" lon="-3.47656">
        <ele>78.2</ele>
        <time>2010-08-13T08:23:20Z</time>
      </trkpt>
      <trkpt lat="47.72894" lon="-3.47724">
        <ele>77.7</ele>
        <time>2010-08-13T08:23:27Z</time>
      </trkpt>
      <trkpt lat="47.72891" lon="-3.47792">
        <ele>76.4</ele>
        <time>2010-08-13T08:23:35Z</time>
      </trkpt>
      <trkpt lat="47.72883" lon="-3.47859">
        <ele>74.7</ele>
        <time>2010-08-13T08:23:44Z</time>
      </trkpt>
      <trkpt lat="47.72885" lon="-3.47874">
        <ele>74</ele>
        <time>2010-08-13T08:23:48Z</time>
      </trkpt>
      <trkpt lat="47.72939" lon="-3.47876">
        <ele>71.6</ele>
        <time>2010-08-13T08:24:01Z</time>
      </trkpt>
      <trkpt lat="47.72989" lon="-3.47866">
        <ele>69.3</ele>
        <time>2010-08-13T08:24:13Z</time>
      </trkpt>
      <trkpt lat="47.73027" lon="-3.47867">
        <ele>67.9</ele>
        <time>2010-08-13T08:24:23Z</time>
      </trkpt>
      <trkpt lat="47.73038" lon="-3.47933">
        <ele>67.5</ele>
        <time>2010-08-13T08:24:34Z</time>
      </trkpt>
      <trkpt lat="47.7303" lon="-3.48001">
        <ele>67.1</ele>
        <time>2010-08-13T08:24:44Z</time>
      </trkpt>
      <trkpt lat="47.73026" lon="-3.48084">
        <ele>66.8</ele>
        <time>2010-08-13T08:24:54Z</time>
      </trkpt>
      <trkpt lat="47.73019" lon="-3.48155">
        <ele>66.4</ele>
        <time>2010-08-13T08:25:04Z</time>
      </trkpt>
      <trkpt lat="47.72996" lon="-3.48224">
        <ele>66.1</ele>
        <time>2010-08-13T08:25:11Z</time>
      </trkpt>
      <trkpt lat="47.72975" lon="-3.48288">
        <ele>65.9</ele>
        <time>2010-08-13T08:25:18Z</time>
      </trkpt>
      <trkpt lat="47.72948" lon="-3.48354">
        <ele>65.6</ele>
        <time>2010-08-13T08:25:25Z</time>
      </trkpt>
      <trkpt lat="47.72917" lon="-3.4841">
        <ele>65.3</ele>
        <time>2010-08-13T08:25:33Z</time>
      </trkpt>
      <trkpt lat="47.72892" lon="-3.48469">
        <ele>65</ele>
        <time>2010-08-13T08:25:41Z</time>
      </trkpt>
      <trkpt lat="47.72873" lon="-3.48536">
        <ele>64.6</ele>
        <time>2010-08-13T08:25:52Z</time>
      </trkpt>
      <trkpt lat="47.72846" lon="-3.48593">
        <ele>64.1</ele>
        <time>2010-08-13T08:26:07Z</time>
      </trkpt>
      <trkpt lat="47.72829" lon="-3.48634">
        <ele>63.8</ele>
        <time>2010-08-13T08:26:16Z</time>
      </trkpt>
      <trkpt lat="47.72783" lon="-3.4862">
        <ele>63.4</ele>
        <time>2010-08-13T08:26:27Z</time>
      </trkpt>
      <trkpt lat="47.72742" lon="-3.48589">
        <ele>63.1</ele>
        <time>2010-08-13T08:26:35Z</time>
      </trkpt>
      <trkpt lat="47.72734" lon="-3.4858">
        <ele>62.9</ele>
        <time>2010-08-13T08:26:40Z</time>
      </trkpt>
      <trkpt lat="47.72748" lon="-3.48583">
        <ele>62.5</ele>
        <time>2010-08-13T08:26:50Z</time>
      </trkpt>
      <trkpt lat="47.72765" lon="-3.48602">
        <ele>62.4</ele>
        <time>2010-08-13T08:26:54Z</time>
      </trkpt>
      <trkpt lat="47.72773" lon="-3.48668">
        <ele>62</ele>
        <time>2010-08-13T08:27:05Z</time>
      </trkpt>
      <trkpt lat="47.72761" lon="-3.48755">
        <ele>61.6</ele>
        <time>2010-08-13T08:27:15Z</time>
      </trkpt>
      <trkpt lat="47.72759" lon="-3.48823">
        <ele>61.3</ele>
        <time>2010-08-13T08:27:24Z</time>
      </trkpt>
      <trkpt lat="47.72761" lon="-3.48892">
        <ele>61</ele>
        <time>2010-08-13T08:27:31Z</time>
      </trkpt>
      <trkpt lat="47.72767" lon="-3.4896">
        <ele>60.8</ele>
        <time>2010-08-13T08:27:39Z</time>
      </trkpt>
      <trkpt lat="47.72774" lon="-3.49029">
        <ele>60.5</ele>
        <time>2010-08-13T08:27:46Z</time>
      </trkpt>
      <trkpt lat="47.72778" lon="-3.49096">
        <ele>60.2</ele>
        <time>2010-08-13T08:27:54Z</time>
      </trkpt>
      <trkpt lat="47.72788" lon="-3.49166">
        <ele>59.9</ele>
        <time>2010-08-13T08:28:03Z</time>
      </trkpt>
      <trkpt lat="47.72795" lon="-3.49234">
        <ele>59.5</ele>
        <time>2010-08-13T08:28:12Z</time>
      </trkpt>
      <trkpt lat="47.72752" lon="-3.49261">
        <ele>59.2</ele>
        <time>2010-08-13T08:28:22Z</time>
      </trkpt>
      <trkpt lat="47.72724" lon="-3.49317">
        <ele>58.8</ele>
        <time>2010-08-13T08:28:33Z</time>
      </trkpt>
      <trkpt lat="47.72731" lon="-3.49347">
        <ele>57.9</ele>
        <time>2010-08-13T08:28:57Z</time>
      </trkpt>
      <trkpt lat="47.7275" lon="-3.49369">
        <ele>57.7</ele>
        <time>2010-08-13T08:29:03Z</time>
      </trkpt>
      <trkpt lat="47.72791" lon="-3.49401">
        <ele>57.4</ele>
        <time>2010-08-13T08:29:11Z</time>
      </trkpt>
      <trkpt lat="47.72833" lon="-3.49437">
        <ele>57.1</ele>
        <time>2010-08-13T08:29:19Z</time>
      </trkpt>
      <trkpt lat="47.72872" lon="-3.49474">
        <ele>57.1</ele>
        <time>2010-08-13T08:29:27Z</time>
      </trkpt>
      <trkpt lat="47.7291" lon="-3.49511">
        <ele>57.4</ele>
        <time>2010-08-13T08:29:36Z</time>
      </trkpt>
      <trkpt lat="47.7295" lon="-3.49546">
        <ele>57.6</ele>
        <time>2010-08-13T08:29:44Z</time>
      </trkpt>
      <trkpt lat="47.7299" lon="-3.49583">
        <ele>57.8</ele>
        <time>2010-08-13T08:29:53Z</time>
      </trkpt>
      <trkpt lat="47.73033" lon="-3.49621">
        <ele>58</ele>
        <time>2010-08-13T08:30:01Z</time>
      </trkpt>
      <trkpt lat="47.73069" lon="-3.49661">
        <ele>58.2</ele>
        <time>2010-08-13T08:30:07Z</time>
      </trkpt>
      <trkpt lat="47.73112" lon="-3.49696">
        <ele>58.4</ele>
        <time>2010-08-13T08:30:16Z</time>
      </trkpt>
      <trkpt lat="47.73155" lon="-3.49727">
        <ele>58.6</ele>
        <time>2010-08-13T08:30:23Z</time>
      </trkpt>
      <trkpt lat="47.73205" lon="-3.49757">
        <ele>58.9</ele>
        <time>2010-08-13T08:30:33Z</time>
      </trkpt>
      <trkpt lat="47.73252" lon="-3.49794">
        <ele>59.1</ele>
        <time>2010-08-13T08:30:44Z</time>
      </trkpt>
      <trkpt lat="47.73298" lon="-3.49826">
        <ele>59.8</ele>
        <time>2010-08-13T08:31:10Z</time>
      </trkpt>
      <trkpt lat="47.73343" lon="-3.49857">
        <ele>60.1</ele>
        <time>2010-08-13T08:31:23Z</time>
      </trkpt>
      <trkpt lat="47.73387" lon="-3.4989">
        <ele>60.4</ele>
        <time>2010-08-13T08:31:33Z</time>
      </trkpt>
      <trkpt lat="47.7343" lon="-3.49931">
        <ele>60.7</ele>
        <time>2010-08-13T08:31:44Z</time>
      </trkpt>
      <trkpt lat="47.73466" lon="-3.49972">
        <ele>60.9</ele>
        <time>2010-08-13T08:31:54Z</time>
      </trkpt>
      <trkpt lat="47.73501" lon="-3.50013">
        <ele>61.2</ele>
        <time>2010-08-13T08:32:04Z</time>
      </trkpt>
      <trkpt lat="47.73546" lon="-3.50057">
        <ele>61.5</ele>
        <time>2010-08-13T08:32:15Z</time>
      </trkpt>
      <trkpt lat="47.73588" lon="-3.50092">
        <ele>61.7</ele>
        <time>2010-08-13T08:32:24Z</time>
      </trkpt>
      <trkpt lat="47.73633" lon="-3.5012">
        <ele>62</ele>
        <time>2010-08-13T08:32:34Z</time>
      </trkpt>
      <trkpt lat="47.73678" lon="-3.50141">
        <ele>62.2</ele>
        <time>2010-08-13T08:32:43Z</time>
      </trkpt>
      <trkpt lat="47.73727" lon="-3.5013">
        <ele>63.2</ele>
        <time>2010-08-13T08:33:20Z</time>
      </trkpt>
      <trkpt lat="47.73786" lon="-3.50141">
        <ele>63.5</ele>
        <time>2010-08-13T08:33:30Z</time>
      </trkpt>
      <trkpt lat="47.73819" lon="-3.50126">
        <ele>63.8</ele>
        <time>2010-08-13T08:33:42Z</time>
      </trkpt>
      <trkpt lat="47.7384" lon="-3.50065">
        <ele>64.2</ele>
        <time>2010-08-13T08:33:57Z</time>
      </trkpt>
      <trkpt lat="47.7387" lon="-3.50014">
        <ele>64.4</ele>
        <time>2010-08-13T08:34:07Z</time>
      </trkpt>
      <trkpt lat="47.7391" lon="-3.4998">
        <ele>64.7</ele>
        <time>2010-08-13T08:34:20Z</time>
      </trkpt>
      <trkpt lat="47.73919" lon="-3.49969">
        <ele>65</ele>
        <time>2010-08-13T08:34:30Z</time>
      </trkpt>
      <trkpt lat="47.73962" lon="-3.49995">
        <ele>65.4</ele>
        <time>2010-08-13T08:34:45Z</time>
      </trkpt>
      <trkpt lat="47.74004" lon="-3.50025">
        <ele>65.7</ele>
        <time>2010-08-13T08:34:57Z</time>
      </trkpt>
      <trkpt lat="47.73961" lon="-3.50001">
        <ele>66</ele>
        <time>2010-08-13T08:35:09Z</time>
      </trkpt>
      <trkpt lat="47.73914" lon="-3.49975">
        <ele>66.3</ele>
        <time>2010-08-13T08:35:19Z</time>
      </trkpt>
      <trkpt lat="47.73885" lon="-3.49958">
        <ele>66.4</ele>
        <time>2010-08-13T08:35:24Z</time>
      </trkpt>
      <trkpt lat="47.73892" lon="-3.49925">
        <ele>66.6</ele>
        <time>2010-08-13T08:35:32Z</time>
      </trkpt>
      <trkpt lat="47.73926" lon="-3.4988">
        <ele>66.9</ele>
        <time>2010-08-13T08:35:43Z</time>
      </trkpt>
      <trkpt lat="47.73954" lon="-3.49792">
        <ele>67.3</ele>
        <time>2010-08-13T08:35:54Z</time>
      </trkpt>
      <trkpt lat="47.73954" lon="-3.49724">
        <ele>68.2</ele>
        <time>2010-08-13T08:36:10Z</time>
      </trkpt>
      <trkpt lat="47.7396" lon="-3.49649">
        <ele>68.7</ele>
        <time>2010-08-13T08:36:20Z</time>
      </trkpt>
      <trkpt lat="47.73965" lon="-3.49578">
        <ele>69.3</ele>
        <time>2010-08-13T08:36:32Z</time>
      </trkpt>
      <trkpt lat="47.73958" lon="-3.49484">
        <ele>70</ele>
        <time>2010-08-13T08:36:46Z</time>
      </trkpt>
      <trkpt lat="47.7397" lon="-3.49418">
        <ele>71.1</ele>
        <time>2010-08-13T08:37:08Z</time>
      </trkpt>
      <trkpt lat="47.73994" lon="-3.49361">
        <ele>71.9</ele>
        <time>2010-08-13T08:37:24Z</time>
      </trkpt>
      <trkpt lat="47.74024" lon="-3.49305">
        <ele>72.5</ele>
        <time>2010-08-13T08:37:36Z</time>
      </trkpt>
      <trkpt lat="47.74044" lon="-3.49244">
        <ele>73</ele>
        <time>2010-08-13T08:37:46Z</time>
      </trkpt>
      <trkpt lat="47.74062" lon="-3.49178">
        <ele>73.6</ele>
        <time>2010-08-13T08:37:58Z</time>
      </trkpt>
      <trkpt lat="47.74074" lon="-3.49128">
        <ele>74.1</ele>
        <time>2010-08-13T08:38:08Z</time>
      </trkpt>
      <trkpt lat="47.74048" lon="-3.49064">
        <ele>74.7</ele>
        <time>2010-08-13T08:38:18Z</time>
      </trkpt>
      <trkpt lat="47.7402" lon="-3.49049">
        <ele>75</ele>
        <time>2010-08-13T08:38:26Z</time>
      </trkpt>
      <trkpt lat="47.73981" lon="-3.49087">
        <ele>75.7</ele>
        <time>2010-08-13T08:38:39Z</time>
      </trkpt>
      <trkpt lat="47.73947" lon="-3.49134">
        <ele>76.2</ele>
        <time>2010-08-13T08:38:49Z</time>
      </trkpt>
      <trkpt lat="47.73942" lon="-3.4914">
        <ele>76.3</ele>
        <time>2010-08-13T08:38:51Z</time>
      </trkpt>
      <trkpt lat="47.73906" lon="-3.49134">
        <ele>76.8</ele>
        <time>2010-08-13T08:39:00Z</time>
      </trkpt>
      <trkpt lat="47.73867" lon="-3.49042">
        <ele>76.7</ele>
        <time>2010-08-13T08:39:10Z</time>
      </trkpt>
      <trkpt lat="47.73861" lon="-3.48971">
        <ele>75.9</ele>
        <time>2010-08-13T08:39:26Z</time>
      </trkpt>
      <trkpt lat="47.73853" lon="-3.48958">
        <ele>75.7</ele>
        <time>2010-08-13T08:39:30Z</time>
      </trkpt>
      <trkpt lat="47.73862" lon="-3.4896">
        <ele>73.4</ele>
        <time>2010-08-13T08:40:16Z</time>
      </trkpt>
      <trkpt lat="47.73868" lon="-3.48972">
        <ele>73.1</ele>
        <time>2010-08-13T08:40:22Z</time>
      </trkpt>
      <trkpt lat="47.73912" lon="-3.48997">
        <ele>72.3</ele>
        <time>2010-08-13T08:40:37Z</time>
      </trkpt>
      <trkpt lat="47.7396" lon="-3.48998">
        <ele>71.8</ele>
        <time>2010-08-13T08:40:48Z</time>
      </trkpt>
      <trkpt lat="47.73996" lon="-3.48966">
        <ele>71.2</ele>
        <time>2010-08-13T08:40:58Z</time>
      </trkpt>
      <trkpt lat="47.74041" lon="-3.48951">
        <ele>70.4</ele>
        <time>2010-08-13T08:41:16Z</time>
      </trkpt>
      <trkpt lat="47.74085" lon="-3.48931">
        <ele>68.3</ele>
        <time>2010-08-13T08:41:56Z</time>
      </trkpt>
      <trkpt lat="47.74119" lon="-3.48887">
        <ele>69</ele>
        <time>2010-08-13T08:42:37Z</time>
      </trkpt>
      <trkpt lat="47.74136" lon="-3.48821">
        <ele>71.9</ele>
        <time>2010-08-13T08:42:58Z</time>
      </trkpt>
      <trkpt lat="47.74132" lon="-3.48762">
        <ele>75.1</ele>
        <time>2010-08-13T08:43:21Z</time>
      </trkpt>
      <trkpt lat="47.74123" lon="-3.48722">
        <ele>77</ele>
        <time>2010-08-13T08:43:35Z</time>
      </trkpt>
      <trkpt lat="47.74079" lon="-3.48683">
        <ele>79.9</ele>
        <time>2010-08-13T08:43:55Z</time>
      </trkpt>
      <trkpt lat="47.74029" lon="-3.48653">
        <ele>83</ele>
        <time>2010-08-13T08:44:17Z</time>
      </trkpt>
      <trkpt lat="47.7399" lon="-3.48619">
        <ele>87.3</ele>
        <time>2010-08-13T08:44:47Z</time>
      </trkpt>
      <trkpt lat="47.73954" lon="-3.48578">
        <ele>90.3</ele>
        <time>2010-08-13T08:45:07Z</time>
      </trkpt>
      <trkpt lat="47.73909" lon="-3.48553">
        <ele>92.6</ele>
        <time>2010-08-13T08:45:22Z</time>
      </trkpt>
      <trkpt lat="47.73847" lon="-3.48532">
        <ele>96.8</ele>
        <time>2010-08-13T08:45:49Z</time>
      </trkpt>
      <trkpt lat="47.73791" lon="-3.48504">
        <ele>97.4</ele>
        <time>2010-08-13T08:46:15Z</time>
      </trkpt>
      <trkpt lat="47.73771" lon="-3.48491">
        <ele>96</ele>
        <time>2010-08-13T08:46:24Z</time>
      </trkpt>
      <trkpt lat="47.73724" lon="-3.48492">
        <ele>90</ele>
        <time>2010-08-13T08:47:03Z</time>
      </trkpt>
      <trkpt lat="47.73718" lon="-3.48489">
        <ele>78.4</ele>
        <time>2010-08-13T08:47:42Z</time>
      </trkpt>
      <trkpt lat="47.73704" lon="-3.4846">
        <ele>81.4</ele>
        <time>2010-08-13T08:48:12Z</time>
      </trkpt>
      <trkpt lat="47.73662" lon="-3.48432">
        <ele>84</ele>
        <time>2010-08-13T08:48:26Z</time>
      </trkpt>
      <trkpt lat="47.73614" lon="-3.48412">
        <ele>85.5</ele>
        <time>2010-08-13T08:48:34Z</time>
      </trkpt>
      <trkpt lat="47.73565" lon="-3.48396">
        <ele>87.1</ele>
        <time>2010-08-13T08:48:43Z</time>
      </trkpt>
      <trkpt lat="47.73513" lon="-3.48375">
        <ele>88.8</ele>
        <time>2010-08-13T08:48:56Z</time>
      </trkpt>
      <trkpt lat="47.73466" lon="-3.48376">
        <ele>88</ele>
        <time>2010-08-13T08:49:03Z</time>
      </trkpt>
      <trkpt lat="47.73421" lon="-3.48372">
        <ele>87.3</ele>
        <time>2010-08-13T08:49:10Z</time>
      </trkpt>
      <trkpt lat="47.73373" lon="-3.48385">
        <ele>86.4</ele>
        <time>2010-08-13T08:49:18Z</time>
      </trkpt>
      <trkpt lat="47.73315" lon="-3.48384">
        <ele>85.3</ele>
        <time>2010-08-13T08:49:28Z</time>
      </trkpt>
      <trkpt lat="47.73296" lon="-3.48385">
        <ele>84.5</ele>
        <time>2010-08-13T08:49:35Z</time>
      </trkpt>
      <trkpt lat="47.73279" lon="-3.4845">
        <ele>83</ele>
        <time>2010-08-13T08:49:48Z</time>
      </trkpt>
      <trkpt lat="47.73302" lon="-3.4839">
        <ele>78</ele>
        <time>2010-08-13T08:50:36Z</time>
      </trkpt>
      <trkpt lat="47.73326" lon="-3.48327">
        <ele>77.1</ele>
        <time>2010-08-13T08:50:45Z</time>
      </trkpt>
      <trkpt lat="47.73349" lon="-3.48269">
        <ele>76.3</ele>
        <time>2010-08-13T08:50:54Z</time>
      </trkpt>
      <trkpt lat="47.73356" lon="-3.482">
        <ele>75.2</ele>
        <time>2010-08-13T08:51:06Z</time>
      </trkpt>
      <trkpt lat="47.73334" lon="-3.48139">
        <ele>74.4</ele>
        <time>2010-08-13T08:51:15Z</time>
      </trkpt>
      <trkpt lat="47.7334" lon="-3.48069">
        <ele>73.7</ele>
        <time>2010-08-13T08:51:22Z</time>
      </trkpt>
      <trkpt lat="47.73342" lon="-3.47996">
        <ele>73</ele>
        <time>2010-08-13T08:51:29Z</time>
      </trkpt>
      <trkpt lat="47.73331" lon="-3.47924">
        <ele>72.5</ele>
        <time>2010-08-13T08:51:35Z</time>
      </trkpt>
      <trkpt lat="47.73352" lon="-3.47865">
        <ele>71.8</ele>
        <time>2010-08-13T08:51:43Z</time>
      </trkpt>
      <trkpt lat="47.73367" lon="-3.47796">
        <ele>71.1</ele>
        <time>2010-08-13T08:51:50Z</time>
      </trkpt>
      <trkpt lat="47.73378" lon="-3.47727">
        <ele>70.4</ele>
        <time>2010-08-13T08:51:57Z</time>
      </trkpt>
      <trkpt lat="47.73377" lon="-3.47683">
        <ele>69.7</ele>
        <time>2010-08-13T08:52:05Z</time>
      </trkpt>
      <trkpt lat="47.73371" lon="-3.4769">
        <ele>67.1</ele>
        <time>2010-08-13T08:52:35Z</time>
      </trkpt>
      <trkpt lat="47.73353" lon="-3.47626">
        <ele>68.2</ele>
        <time>2010-08-13T08:52:45Z</time>
      </trkpt>
      <trkpt lat="47.73329" lon="-3.47565">
        <ele>69.3</ele>
        <time>2010-08-13T08:52:54Z</time>
      </trkpt>
      <trkpt lat="47.73329" lon="-3.47508">
        <ele>70.6</ele>
        <time>2010-08-13T08:53:06Z</time>
      </trkpt>
      <trkpt lat="47.73369" lon="-3.47469">
        <ele>71.9</ele>
        <time>2010-08-13T08:53:18Z</time>
      </trkpt>
      <trkpt lat="47.7341" lon="-3.47435">
        <ele>73.4</ele>
        <time>2010-08-13T08:53:32Z</time>
      </trkpt>
      <trkpt lat="47.7345" lon="-3.47414">
        <ele>74.6</ele>
        <time>2010-08-13T08:53:42Z</time>
      </trkpt>
      <trkpt lat="47.7351" lon="-3.47407">
        <ele>80.4</ele>
        <time>2010-08-13T08:54:33Z</time>
      </trkpt>
      <trkpt lat="47.73558" lon="-3.47407">
        <ele>81</ele>
        <time>2010-08-13T08:54:39Z</time>
      </trkpt>
      <trkpt lat="47.73603" lon="-3.4742">
        <ele>80.7</ele>
        <time>2010-08-13T08:54:46Z</time>
      </trkpt>
      <trkpt lat="47.73628" lon="-3.47428">
        <ele>80.5</ele>
        <time>2010-08-13T08:54:51Z</time>
      </trkpt>
      <trkpt lat="47.73663" lon="-3.47377">
        <ele>80.1</ele>
        <time>2010-08-13T08:55:01Z</time>
      </trkpt>
      <trkpt lat="47.73689" lon="-3.47336">
        <ele>79.8</ele>
        <time>2010-08-13T08:55:08Z</time>
      </trkpt>
      <trkpt lat="47.73721" lon="-3.47309">
        <ele>79.4</ele>
        <time>2010-08-13T08:55:17Z</time>
      </trkpt>
      <trkpt lat="47.73742" lon="-3.4724">
        <ele>78.9</ele>
        <time>2010-08-13T08:55:30Z</time>
      </trkpt>
      <trkpt lat="47.73759" lon="-3.47192">
        <ele>78.4</ele>
        <time>2010-08-13T08:55:42Z</time>
      </trkpt>
      <trkpt lat="47.73797" lon="-3.47135">
        <ele>77.8</ele>
        <time>2010-08-13T08:55:57Z</time>
      </trkpt>
      <trkpt lat="47.73848" lon="-3.47081">
        <ele>76.8</ele>
        <time>2010-08-13T08:56:22Z</time>
      </trkpt>
      <trkpt lat="47.73889" lon="-3.47029">
        <ele>76.4</ele>
        <time>2010-08-13T08:56:33Z</time>
      </trkpt>
      <trkpt lat="47.73926" lon="-3.46976">
        <ele>76</ele>
        <time>2010-08-13T08:56:43Z</time>
      </trkpt>
      <trkpt lat="47.73939" lon="-3.46969">
        <ele>75.7</ele>
        <time>2010-08-13T08:56:50Z</time>
      </trkpt>
      <trkpt lat="47.73985" lon="-3.46981">
        <ele>75.1</ele>
        <time>2010-08-13T08:57:03Z</time>
      </trkpt>
      <trkpt lat="47.74004" lon="-3.46984">
        <ele>75</ele>
        <time>2010-08-13T08:57:07Z</time>
      </trkpt>
      <trkpt lat="47.74049" lon="-3.46936">
        <ele>74.5</ele>
        <time>2010-08-13T08:57:18Z</time>
      </trkpt>
      <trkpt lat="47.74085" lon="-3.46892">
        <ele>74.2</ele>
        <time>2010-08-13T08:57:27Z</time>
      </trkpt>
      <trkpt lat="47.74125" lon="-3.46851">
        <ele>73.8</ele>
        <time>2010-08-13T08:57:37Z</time>
      </trkpt>
      <trkpt lat="47.74154" lon="-3.46799">
        <ele>73.4</ele>
        <time>2010-08-13T08:57:46Z</time>
      </trkpt>
      <trkpt lat="47.74182" lon="-3.46738">
        <ele>72.9</ele>
        <time>2010-08-13T08:57:59Z</time>
      </trkpt>
      <trkpt lat="47.74205" lon="-3.46667">
        <ele>72.4</ele>
        <time>2010-08-13T08:58:11Z</time>
      </trkpt>
      <trkpt lat="47.74237" lon="-3.46615">
        <ele>71.9</ele>
        <time>2010-08-13T08:58:22Z</time>
      </trkpt>
      <trkpt lat="47.74282" lon="-3.46593">
        <ele>71.5</ele>
        <time>2010-08-13T08:58:32Z</time>
      </trkpt>
      <trkpt lat="47.74326" lon="-3.46566">
        <ele>71.2</ele>
        <time>2010-08-13T08:58:41Z</time>
      </trkpt>
      <trkpt lat="47.74393" lon="-3.46536">
        <ele>70.8</ele>
        <time>2010-08-13T08:58:50Z</time>
      </trkpt>
      <trkpt lat="47.74414" lon="-3.4654">
        <ele>68</ele>
        <time>2010-08-13T08:59:59Z</time>
      </trkpt>
      <trkpt lat="47.74365" lon="-3.46544">
        <ele>74.5</ele>
        <time>2010-08-13T09:00:58Z</time>
      </trkpt>
      <trkpt lat="47.74315" lon="-3.46566">
        <ele>75.3</ele>
        <time>2010-08-13T09:01:06Z</time>
      </trkpt>
      <trkpt lat="47.7427" lon="-3.46593">
        <ele>76</ele>
        <time>2010-08-13T09:01:13Z</time>
      </trkpt>
      <trkpt lat="47.74226" lon="-3.46623">
        <ele>76.9</ele>
        <time>2010-08-13T09:01:20Z</time>
      </trkpt>
      <trkpt lat="47.742" lon="-3.46658">
        <ele>77.8</ele>
        <time>2010-08-13T09:01:29Z</time>
      </trkpt>
      <trkpt lat="47.74155" lon="-3.46664">
        <ele>78.5</ele>
        <time>2010-08-13T09:01:43Z</time>
      </trkpt>
      <trkpt lat="47.74083" lon="-3.46648">
        <ele>80.3</ele>
        <time>2010-08-13T09:02:23Z</time>
      </trkpt>
      <trkpt lat="47.74051" lon="-3.46643">
        <ele>80.7</ele>
        <time>2010-08-13T09:02:32Z</time>
      </trkpt>
      <trkpt lat="47.74019" lon="-3.46595">
        <ele>81.2</ele>
        <time>2010-08-13T09:02:45Z</time>
      </trkpt>
      <trkpt lat="47.74001" lon="-3.4656">
        <ele>81.7</ele>
        <time>2010-08-13T09:02:55Z</time>
      </trkpt>
      <trkpt lat="47.73981" lon="-3.46494">
        <ele>82.2</ele>
        <time>2010-08-13T09:03:08Z</time>
      </trkpt>
      <trkpt lat="47.7398" lon="-3.46468">
        <ele>82.4</ele>
        <time>2010-08-13T09:03:12Z</time>
      </trkpt>
      <trkpt lat="47.73989" lon="-3.46442">
        <ele>82.6</ele>
        <time>2010-08-13T09:03:16Z</time>
      </trkpt>
      <trkpt lat="47.73994" lon="-3.46361">
        <ele>83.7</ele>
        <time>2010-08-13T09:03:42Z</time>
      </trkpt>
      <trkpt lat="47.73973" lon="-3.46246">
        <ele>85.4</ele>
        <time>2010-08-13T09:04:22Z</time>
      </trkpt>
      <trkpt lat="47.73957" lon="-3.46154">
        <ele>86</ele>
        <time>2010-08-13T09:04:34Z</time>
      </trkpt>
      <trkpt lat="47.73951" lon="-3.46082">
        <ele>86.4</ele>
        <time>2010-08-13T09:04:44Z</time>
      </trkpt>
      <trkpt lat="47.73938" lon="-3.46013">
        <ele>86.8</ele>
        <time>2010-08-13T09:04:53Z</time>
      </trkpt>
      <trkpt lat="47.73929" lon="-3.45937">
        <ele>87.2</ele>
        <time>2010-08-13T09:05:02Z</time>
      </trkpt>
      <trkpt lat="47.73916" lon="-3.4586">
        <ele>87.6</ele>
        <time>2010-08-13T09:05:11Z</time>
      </trkpt>
      <trkpt lat="47.73914" lon="-3.45798">
        <ele>88</ele>
        <time>2010-08-13T09:05:25Z</time>
      </trkpt>
      <trkpt lat="47.73942" lon="-3.45807">
        <ele>88.2</ele>
        <time>2010-08-13T09:05:42Z</time>
      </trkpt>
      <trkpt lat="47.73956" lon="-3.45741">
        <ele>88.3</ele>
        <time>2010-08-13T09:05:55Z</time>
      </trkpt>
      <trkpt lat="47.73944" lon="-3.45673">
        <ele>88.4</ele>
        <time>2010-08-13T09:06:05Z</time>
      </trkpt>
      <trkpt lat="47.73924" lon="-3.45613">
        <ele>88.5</ele>
        <time>2010-08-13T09:06:14Z</time>
      </trkpt>
      <trkpt lat="47.73906" lon="-3.45559">
        <ele>88.6</ele>
        <time>2010-08-13T09:06:25Z</time>
      </trkpt>
      <trkpt lat="47.73887" lon="-3.45557">
        <ele>88.8</ele>
        <time>2010-08-13T09:06:39Z</time>
      </trkpt>
      <trkpt lat="47.73894" lon="-3.45612">
        <ele>89.3</ele>
        <time>2010-08-13T09:07:32Z</time>
      </trkpt>
      <trkpt lat="47.73943" lon="-3.45576">
        <ele>89.5</ele>
        <time>2010-08-13T09:07:59Z</time>
      </trkpt>
      <trkpt lat="47.73982" lon="-3.45507">
        <ele>89.8</ele>
        <time>2010-08-13T09:08:23Z</time>
      </trkpt>
      <trkpt lat="47.74027" lon="-3.45442">
        <ele>89.8</ele>
        <time>2010-08-13T09:08:31Z</time>
      </trkpt>
      <trkpt lat="47.74065" lon="-3.45385">
        <ele>89.9</ele>
        <time>2010-08-13T09:08:37Z</time>
      </trkpt>
      <trkpt lat="47.74102" lon="-3.45319">
        <ele>90</ele>
        <time>2010-08-13T09:08:44Z</time>
      </trkpt>
      <trkpt lat="47.74133" lon="-3.4527">
        <ele>90</ele>
        <time>2010-08-13T09:08:50Z</time>
      </trkpt>
      <trkpt lat="47.74165" lon="-3.45226">
        <ele>90.1</ele>
        <time>2010-08-13T09:08:57Z</time>
      </trkpt>
      <trkpt lat="47.7419" lon="-3.45157">
        <ele>90.2</ele>
        <time>2010-08-13T09:09:07Z</time>
      </trkpt>
      <trkpt lat="47.74201" lon="-3.45132">
        <ele>90.3</ele>
        <time>2010-08-13T09:09:12Z</time>
      </trkpt>
      <trkpt lat="47.74206" lon="-3.45101">
        <ele>90.3</ele>
        <time>2010-08-13T09:09:18Z</time>
      </trkpt>
      <trkpt lat="47.74181" lon="-3.45085">
        <ele>90.7</ele>
        <time>2010-08-13T09:09:55Z</time>
      </trkpt>
      <trkpt lat="47.74134" lon="-3.45079">
        <ele>90.8</ele>
        <time>2010-08-13T09:10:08Z</time>
      </trkpt>
      <trkpt lat="47.74107" lon="-3.45075">
        <ele>90.9</ele>
        <time>2010-08-13T09:10:18Z</time>
      </trkpt>
      <trkpt lat="47.74113" lon="-3.45002">
        <ele>91.3</ele>
        <time>2010-08-13T09:11:04Z</time>
      </trkpt>
      <trkpt lat="47.74132" lon="-3.44936">
        <ele>91.4</ele>
        <time>2010-08-13T09:11:10Z</time>
      </trkpt>
      <trkpt lat="47.74174" lon="-3.44895">
        <ele>91.5</ele>
        <time>2010-08-13T09:11:22Z</time>
      </trkpt>
      <trkpt lat="47.74202" lon="-3.44888">
        <ele>91.8</ele>
        <time>2010-08-13T09:11:56Z</time>
      </trkpt>
      <trkpt lat="47.74215" lon="-3.44851">
        <ele>91.9</ele>
        <time>2010-08-13T09:12:02Z</time>
      </trkpt>
      <trkpt lat="47.74219" lon="-3.4478">
        <ele>92</ele>
        <time>2010-08-13T09:12:12Z</time>
      </trkpt>
      <trkpt lat="47.7421" lon="-3.44712">
        <ele>92.1</ele>
        <time>2010-08-13T09:12:21Z</time>
      </trkpt>
      <trkpt lat="47.74206" lon="-3.44699">
        <ele>92.1</ele>
        <time>2010-08-13T09:12:23Z</time>
      </trkpt>
      <trkpt lat="47.74165" lon="-3.44653">
        <ele>92.2</ele>
        <time>2010-08-13T09:12:35Z</time>
      </trkpt>
      <trkpt lat="47.7416" lon="-3.44585">
        <ele>92.4</ele>
        <time>2010-08-13T09:12:51Z</time>
      </trkpt>
      <trkpt lat="47.74144" lon="-3.44513">
        <ele>92.5</ele>
        <time>2010-08-13T09:13:05Z</time>
      </trkpt>
      <trkpt lat="47.74134" lon="-3.44443">
        <ele>92.6</ele>
        <time>2010-08-13T09:13:15Z</time>
      </trkpt>
      <trkpt lat="47.7413" lon="-3.44376">
        <ele>92.8</ele>
        <time>2010-08-13T09:13:32Z</time>
      </trkpt>
      <trkpt lat="47.74134" lon="-3.44334">
        <ele>92.9</ele>
        <time>2010-08-13T09:13:44Z</time>
      </trkpt>
      <trkpt lat="47.74151" lon="-3.44284">
        <ele>93</ele>
        <time>2010-08-13T09:13:56Z</time>
      </trkpt>
      <trkpt lat="47.74176" lon="-3.44262">
        <ele>93.1</ele>
        <time>2010-08-13T09:14:01Z</time>
      </trkpt>
      <trkpt lat="47.74234" lon="-3.44248">
        <ele>93.2</ele>
        <time>2010-08-13T09:14:18Z</time>
      </trkpt>
      <trkpt lat="47.74266" lon="-3.44232">
        <ele>93.3</ele>
        <time>2010-08-13T09:14:28Z</time>
      </trkpt>
      <trkpt lat="47.74296" lon="-3.44186">
        <ele>93.4</ele>
        <time>2010-08-13T09:14:37Z</time>
      </trkpt>
      <trkpt lat="47.74302" lon="-3.44145">
        <ele>93.5</ele>
        <time>2010-08-13T09:14:43Z</time>
      </trkpt>
      <trkpt lat="47.74322" lon="-3.44082">
        <ele>93.6</ele>
        <time>2010-08-13T09:14:53Z</time>
      </trkpt>
      <trkpt lat="47.74313" lon="-3.44045">
        <ele>93.7</ele>
        <time>2010-08-13T09:15:01Z</time>
      </trkpt>
      <trkpt lat="47.74266" lon="-3.44019">
        <ele>93.7</ele>
        <time>2010-08-13T09:15:08Z</time>
      </trkpt>
      <trkpt lat="47.74246" lon="-3.43991">
        <ele>93.8</ele>
        <time>2010-08-13T09:15:18Z</time>
      </trkpt>
      <trkpt lat="47.7424" lon="-3.43949">
        <ele>94</ele>
        <time>2010-08-13T09:15:37Z</time>
      </trkpt>
      <trkpt lat="47.74242" lon="-3.43909">
        <ele>94.1</ele>
        <time>2010-08-13T09:15:47Z</time>
      </trkpt>
      <trkpt lat="47.74255" lon="-3.43821">
        <ele>94.2</ele>
        <time>2010-08-13T09:15:58Z</time>
      </trkpt>
      <trkpt lat="47.74263" lon="-3.43748">
        <ele>94.3</ele>
        <time>2010-08-13T09:16:07Z</time>
      </trkpt>
      <trkpt lat="47.7428" lon="-3.4368">
        <ele>94.4</ele>
        <time>2010-08-13T09:16:15Z</time>
      </trkpt>
      <trkpt lat="47.74296" lon="-3.43633">
        <ele>94.5</ele>
        <time>2010-08-13T09:16:23Z</time>
      </trkpt>
      <trkpt lat="47.74322" lon="-3.4365">
        <ele>95.2</ele>
        <time>2010-08-13T09:17:44Z</time>
      </trkpt>
      <trkpt lat="47.7435" lon="-3.43656">
        <ele>95.3</ele>
        <time>2010-08-13T09:17:52Z</time>
      </trkpt>
      <trkpt lat="47.74372" lon="-3.43596">
        <ele>95.4</ele>
        <time>2010-08-13T09:18:03Z</time>
      </trkpt>
      <trkpt lat="47.74385" lon="-3.43528">
        <ele>95.5</ele>
        <time>2010-08-13T09:18:11Z</time>
      </trkpt>
      <trkpt lat="47.74399" lon="-3.43464">
        <ele>95.6</ele>
        <time>2010-08-13T09:18:17Z</time>
      </trkpt>
      <trkpt lat="47.74415" lon="-3.434">
        <ele>95.6</ele>
        <time>2010-08-13T09:18:24Z</time>
      </trkpt>
      <trkpt lat="47.74423" lon="-3.43329">
        <ele>95.7</ele>
        <time>2010-08-13T09:18:33Z</time>
      </trkpt>
      <trkpt lat="47.74425" lon="-3.43259">
        <ele>95.8</ele>
        <time>2010-08-13T09:18:40Z</time>
      </trkpt>
      <trkpt lat="47.74424" lon="-3.4319">
        <ele>95.8</ele>
        <time>2010-08-13T09:18:45Z</time>
      </trkpt>
      <trkpt lat="47.74421" lon="-3.43116">
        <ele>95.9</ele>
        <time>2010-08-13T09:18:52Z</time>
      </trkpt>
      <trkpt lat="47.74418" lon="-3.43049">
        <ele>96</ele>
        <time>2010-08-13T09:18:58Z</time>
      </trkpt>
      <trkpt lat="47.74422" lon="-3.42978">
        <ele>96</ele>
        <time>2010-08-13T09:19:04Z</time>
      </trkpt>
      <trkpt lat="47.74432" lon="-3.42907">
        <ele>96.1</ele>
        <time>2010-08-13T09:19:10Z</time>
      </trkpt>
      <trkpt lat="47.74443" lon="-3.42851">
        <ele>96.1</ele>
        <time>2010-08-13T09:19:15Z</time>
      </trkpt>
      <trkpt lat="47.74456" lon="-3.42821">
        <ele>96.2</ele>
        <time>2010-08-13T09:19:20Z</time>
      </trkpt>
      <trkpt lat="47.74412" lon="-3.42801">
        <ele>96.3</ele>
        <time>2010-08-13T09:19:37Z</time>
      </trkpt>
      <trkpt lat="47.7437" lon="-3.42761">
        <ele>96.4</ele>
        <time>2010-08-13T09:19:46Z</time>
      </trkpt>
      <trkpt lat="47.74344" lon="-3.42706">
        <ele>96.5</ele>
        <time>2010-08-13T09:19:55Z</time>
      </trkpt>
      <trkpt lat="47.74323" lon="-3.42639">
        <ele>96.9</ele>
        <time>2010-08-13T09:20:34Z</time>
      </trkpt>
      <trkpt lat="47.74296" lon="-3.42627">
        <ele>97</ele>
        <time>2010-08-13T09:20:44Z</time>
      </trkpt>
      <trkpt lat="47.74269" lon="-3.42635">
        <ele>97.1</ele>
        <time>2010-08-13T09:20:54Z</time>
      </trkpt>
      <trkpt lat="47.74244" lon="-3.42619">
        <ele>97.3</ele>
        <time>2010-08-13T09:21:18Z</time>
      </trkpt>
      <trkpt lat="47.7421" lon="-3.42571">
        <ele>97.4</ele>
        <time>2010-08-13T09:21:28Z</time>
      </trkpt>
      <trkpt lat="47.74164" lon="-3.42589">
        <ele>97.5</ele>
        <time>2010-08-13T09:21:39Z</time>
      </trkpt>
      <trkpt lat="47.74128" lon="-3.42631">
        <ele>97.6</ele>
        <time>2010-08-13T09:21:46Z</time>
      </trkpt>
      <trkpt lat="47.74106" lon="-3.42618">
        <ele>97.7</ele>
        <time>2010-08-13T09:21:57Z</time>
      </trkpt>
      <trkpt lat="47.74134" lon="-3.42559">
        <ele>98</ele>
        <time>2010-08-13T09:22:27Z</time>
      </trkpt>
      <trkpt lat="47.74143" lon="-3.42548">
        <ele>98.1</ele>
        <time>2010-08-13T09:22:29Z</time>
      </trkpt>
      <trkpt lat="47.74145" lon="-3.42531">
        <ele>98.4</ele>
        <time>2010-08-13T09:22:34Z</time>
      </trkpt>
      <trkpt lat="47.74099" lon="-3.42527">
        <ele>99.4</ele>
        <time>2010-08-13T09:22:48Z</time>
      </trkpt>
      <trkpt lat="47.74054" lon="-3.42518">
        <ele>100.2</ele>
        <time>2010-08-13T09:22:59Z</time>
      </trkpt>
      <trkpt lat="47.74014" lon="-3.4248">
        <ele>101</ele>
        <time>2010-08-13T09:23:11Z</time>
      </trkpt>
      <trkpt lat="47.7399" lon="-3.42422">
        <ele>101.6</ele>
        <time>2010-08-13T09:23:19Z</time>
      </trkpt>
      <trkpt lat="47.73976" lon="-3.42354">
        <ele>102.2</ele>
        <time>2010-08-13T09:23:29Z</time>
      </trkpt>
      <trkpt lat="47.73981" lon="-3.42284">
        <ele>103.1</ele>
        <time>2010-08-13T09:23:42Z</time>
      </trkpt>
      <trkpt lat="47.7403" lon="-3.42229">
        <ele>104</ele>
        <time>2010-08-13T09:23:55Z</time>
      </trkpt>
      <trkpt lat="47.74078" lon="-3.42182">
        <ele>104.7</ele>
        <time>2010-08-13T09:24:06Z</time>
      </trkpt>
      <trkpt lat="47.74116" lon="-3.42138">
        <ele>105.1</ele>
        <time>2010-08-13T09:24:12Z</time>
      </trkpt>
      <trkpt lat="47.74151" lon="-3.42092">
        <ele>105.6</ele>
        <time>2010-08-13T09:24:19Z</time>
      </trkpt>
      <trkpt lat="47.74188" lon="-3.42044">
        <ele>106.2</ele>
        <time>2010-08-13T09:24:27Z</time>
      </trkpt>
      <trkpt lat="47.74227" lon="-3.42004">
        <ele>106.8</ele>
        <time>2010-08-13T09:24:37Z</time>
      </trkpt>
      <trkpt lat="47.74274" lon="-3.41983">
        <ele>107.5</ele>
        <time>2010-08-13T09:24:47Z</time>
      </trkpt>
      <trkpt lat="47.74322" lon="-3.41962">
        <ele>108</ele>
        <time>2010-08-13T09:24:54Z</time>
      </trkpt>
      <trkpt lat="47.74355" lon="-3.41943">
        <ele>108.4</ele>
        <time>2010-08-13T09:25:00Z</time>
      </trkpt>
      <trkpt lat="47.74376" lon="-3.41874">
        <ele>108.1</ele>
        <time>2010-08-13T09:25:19Z</time>
      </trkpt>
      <trkpt lat="47.74371" lon="-3.41883">
        <ele>108.1</ele>
        <time>2010-08-13T09:25:19Z</time>
      </trkpt>
      <trkpt lat="47.74382" lon="-3.4178">
        <ele>107</ele>
        <time>2010-08-13T09:25:31Z</time>
      </trkpt>
      <trkpt lat="47.74395" lon="-3.41701">
        <ele>106.5</ele>
        <time>2010-08-13T09:25:37Z</time>
      </trkpt>
      <trkpt lat="47.74421" lon="-3.41643">
        <ele>105.9</ele>
        <time>2010-08-13T09:25:44Z</time>
      </trkpt>
      <trkpt lat="47.74448" lon="-3.41588">
        <ele>105.1</ele>
        <time>2010-08-13T09:25:53Z</time>
      </trkpt>
      <trkpt lat="47.7449" lon="-3.41524">
        <ele>104.2</ele>
        <time>2010-08-13T09:26:03Z</time>
      </trkpt>
      <trkpt lat="47.74521" lon="-3.41498">
        <ele>102</ele>
        <time>2010-08-13T09:26:29Z</time>
      </trkpt>
      <trkpt lat="47.74559" lon="-3.41434">
        <ele>100.2</ele>
        <time>2010-08-13T09:26:49Z</time>
      </trkpt>
      <trkpt lat="47.7458" lon="-3.41374">
        <ele>99.2</ele>
        <time>2010-08-13T09:27:00Z</time>
      </trkpt>
      <trkpt lat="47.7459" lon="-3.41308">
        <ele>98.4</ele>
        <time>2010-08-13T09:27:09Z</time>
      </trkpt>
      <trkpt lat="47.74598" lon="-3.41239">
        <ele>97.6</ele>
        <time>2010-08-13T09:27:18Z</time>
      </trkpt>
      <trkpt lat="47.74606" lon="-3.41187">
        <ele>96.1</ele>
        <time>2010-08-13T09:27:35Z</time>
      </trkpt>
      <trkpt lat="47.74591" lon="-3.4119">
        <ele>91.7</ele>
        <time>2010-08-13T09:28:02Z</time>
      </trkpt>
      <trkpt lat="47.74583" lon="-3.41124">
        <ele>83.6</ele>
        <time>2010-08-13T09:28:58Z</time>
      </trkpt>
      <trkpt lat="47.74583" lon="-3.41057">
        <ele>86.8</ele>
        <time>2010-08-13T09:29:08Z</time>
      </trkpt>
      <trkpt lat="47.74596" lon="-3.40992">
        <ele>90.5</ele>
        <time>2010-08-13T09:29:20Z</time>
      </trkpt>
      <trkpt lat="47.74615" lon="-3.40926">
        <ele>93.3</ele>
        <time>2010-08-13T09:29:30Z</time>
      </trkpt>
      <trkpt lat="47.74633" lon="-3.40863">
        <ele>94.3</ele>
        <time>2010-08-13T09:29:39Z</time>
      </trkpt>
      <trkpt lat="47.74651" lon="-3.408">
        <ele>95.3</ele>
        <time>2010-08-13T09:29:47Z</time>
      </trkpt>
      <trkpt lat="47.74668" lon="-3.40734">
        <ele>96.4</ele>
        <time>2010-08-13T09:29:56Z</time>
      </trkpt>
      <trkpt lat="47.74687" lon="-3.40646">
        <ele>97.6</ele>
        <time>2010-08-13T09:30:07Z</time>
      </trkpt>
      <trkpt lat="47.74682" lon="-3.40657">
        <ele>99.1</ele>
        <time>2010-08-13T09:30:19Z</time>
      </trkpt>
      <trkpt lat="47.74646" lon="-3.40625">
        <ele>100.5</ele>
        <time>2010-08-13T09:30:31Z</time>
      </trkpt>
      <trkpt lat="47.74598" lon="-3.40629">
        <ele>101.5</ele>
        <time>2010-08-13T09:30:39Z</time>
      </trkpt>
      <trkpt lat="47.74545" lon="-3.40637">
        <ele>102.7</ele>
        <time>2010-08-13T09:30:50Z</time>
      </trkpt>
      <trkpt lat="47.74502" lon="-3.40669">
        <ele>107.8</ele>
        <time>2010-08-13T09:30:57Z</time>
      </trkpt>
      <trkpt lat="47.74481" lon="-3.40687">
        <ele>111.9</ele>
        <time>2010-08-13T09:31:01Z</time>
      </trkpt>
      <trkpt lat="47.74456" lon="-3.40699">
        <ele>122.2</ele>
        <time>2010-08-13T09:31:10Z</time>
      </trkpt>
      <trkpt lat="47.74455" lon="-3.40706">
        <ele>125</ele>
        <time>2010-08-13T09:31:12Z</time>
      </trkpt>
      <trkpt lat="47.74387" lon="-3.40638">
        <ele>140.4</ele>
        <time>2010-08-13T09:32:10Z</time>
      </trkpt>
      <trkpt lat="47.74374" lon="-3.40601">
        <ele>138.3</ele>
        <time>2010-08-13T09:32:20Z</time>
      </trkpt>
      <trkpt lat="47.74368" lon="-3.40561">
        <ele>136</ele>
        <time>2010-08-13T09:32:31Z</time>
      </trkpt>
      <trkpt lat="47.7434" lon="-3.40548">
        <ele>130</ele>
        <time>2010-08-13T09:33:00Z</time>
      </trkpt>
      <trkpt lat="47.74318" lon="-3.40525">
        <ele>128.3</ele>
        <time>2010-08-13T09:33:11Z</time>
      </trkpt>
      <trkpt lat="47.74334" lon="-3.40483">
        <ele>125.8</ele>
        <time>2010-08-13T09:33:27Z</time>
      </trkpt>
      <trkpt lat="47.74367" lon="-3.40437">
        <ele>124.8</ele>
        <time>2010-08-13T09:33:33Z</time>
      </trkpt>
      <trkpt lat="47.74401" lon="-3.40383">
        <ele>123.3</ele>
        <time>2010-08-13T09:33:43Z</time>
      </trkpt>
      <trkpt lat="47.7441" lon="-3.40372">
        <ele>122.6</ele>
        <time>2010-08-13T09:33:47Z</time>
      </trkpt>
      <trkpt lat="47.74437" lon="-3.40371">
        <ele>120</ele>
        <time>2010-08-13T09:34:04Z</time>
      </trkpt>
      <trkpt lat="47.74442" lon="-3.40381">
        <ele>115</ele>
        <time>2010-08-13T09:34:35Z</time>
      </trkpt>
      <trkpt lat="47.74413" lon="-3.40384">
        <ele>113.8</ele>
        <time>2010-08-13T09:34:57Z</time>
      </trkpt>
      <trkpt lat="47.74367" lon="-3.40428">
        <ele>113.4</ele>
        <time>2010-08-13T09:35:05Z</time>
      </trkpt>
      <trkpt lat="47.74357" lon="-3.40462">
        <ele>108.4</ele>
        <time>2010-08-13T09:36:37Z</time>
      </trkpt>
      <trkpt lat="47.74307" lon="-3.40486">
        <ele>107.4</ele>
        <time>2010-08-13T09:36:55Z</time>
      </trkpt>
      <trkpt lat="47.74257" lon="-3.40494">
        <ele>106.9</ele>
        <time>2010-08-13T09:37:05Z</time>
      </trkpt>
      <trkpt lat="47.7421" lon="-3.40497">
        <ele>106.4</ele>
        <time>2010-08-13T09:37:14Z</time>
      </trkpt>
      <trkpt lat="47.74152" lon="-3.40492">
        <ele>105.6</ele>
        <time>2010-08-13T09:37:29Z</time>
      </trkpt>
      <trkpt lat="47.74108" lon="-3.40452">
        <ele>105.3</ele>
        <time>2010-08-13T09:37:42Z</time>
      </trkpt>
      <trkpt lat="47.7408" lon="-3.4041">
        <ele>108</ele>
        <time>2010-08-13T09:38:02Z</time>
      </trkpt>
      <trkpt lat="47.74044" lon="-3.40339">
        <ele>109.5</ele>
        <time>2010-08-13T09:38:14Z</time>
      </trkpt>
      <trkpt lat="47.74032" lon="-3.40272">
        <ele>110.9</ele>
        <time>2010-08-13T09:38:25Z</time>
      </trkpt>
      <trkpt lat="47.74033" lon="-3.40199">
        <ele>112.6</ele>
        <time>2010-08-13T09:38:38Z</time>
      </trkpt>
      <trkpt lat="47.74035" lon="-3.40129">
        <ele>113.6</ele>
        <time>2010-08-13T09:38:45Z</time>
      </trkpt>
      <trkpt lat="47.74038" lon="-3.40093">
        <ele>114.2</ele>
        <time>2010-08-13T09:38:50Z</time>
      </trkpt>
      <trkpt lat="47.74035" lon="-3.40077">
        <ele>114.4</ele>
        <time>2010-08-13T09:38:52Z</time>
      </trkpt>
      <trkpt lat="47.73995" lon="-3.40036">
        <ele>116.7</ele>
        <time>2010-08-13T09:39:00Z</time>
      </trkpt>
      <trkpt lat="47.7395" lon="-3.40016">
        <ele>121</ele>
        <time>2010-08-13T09:39:11Z</time>
      </trkpt>
      <trkpt lat="47.73867" lon="-3.40035">
        <ele>131</ele>
        <time>2010-08-13T09:39:36Z</time>
      </trkpt>
      <trkpt lat="47.73872" lon="-3.40102">
        <ele>133.4</ele>
        <time>2010-08-13T09:40:01Z</time>
      </trkpt>
      <trkpt lat="47.73855" lon="-3.40166">
        <ele>134.6</ele>
        <time>2010-08-13T09:40:14Z</time>
      </trkpt>
      <trkpt lat="47.7384" lon="-3.40239">
        <ele>135.6</ele>
        <time>2010-08-13T09:40:25Z</time>
      </trkpt>
      <trkpt lat="47.73838" lon="-3.40252">
        <ele>135.8</ele>
        <time>2010-08-13T09:40:27Z</time>
      </trkpt>
      <trkpt lat="47.73868" lon="-3.40312">
        <ele>137.2</ele>
        <time>2010-08-13T09:40:42Z</time>
      </trkpt>
      <trkpt lat="47.73877" lon="-3.40365">
        <ele>138.8</ele>
        <time>2010-08-13T09:40:58Z</time>
      </trkpt>
      <trkpt lat="47.73914" lon="-3.40432">
        <ele>140.1</ele>
        <time>2010-08-13T09:41:12Z</time>
      </trkpt>
      <trkpt lat="47.73911" lon="-3.40474">
        <ele>141</ele>
        <time>2010-08-13T09:41:22Z</time>
      </trkpt>
      <trkpt lat="47.73866" lon="-3.405">
        <ele>148.7</ele>
        <time>2010-08-13T09:41:37Z</time>
      </trkpt>
      <trkpt lat="47.73842" lon="-3.40522">
        <ele>152</ele>
        <time>2010-08-13T09:41:43Z</time>
      </trkpt>
      <trkpt lat="47.7385" lon="-3.40537">
        <ele>156</ele>
        <time>2010-08-13T09:41:47Z</time>
      </trkpt>
      <trkpt lat="47.73845" lon="-3.40555">
        <ele>158</ele>
        <time>2010-08-13T09:41:49Z</time>
      </trkpt>
      <trkpt lat="47.7386" lon="-3.40562">
        <ele>164</ele>
        <time>2010-08-13T09:41:56Z</time>
      </trkpt>
      <trkpt lat="47.73867" lon="-3.40592">
        <ele>163</ele>
        <time>2010-08-13T09:42:01Z</time>
      </trkpt>
      <trkpt lat="47.73854" lon="-3.40649">
        <ele>161.5</ele>
        <time>2010-08-13T09:42:08Z</time>
      </trkpt>
      <trkpt lat="47.73848" lon="-3.40707">
        <ele>160.1</ele>
        <time>2010-08-13T09:42:14Z</time>
      </trkpt>
      <trkpt lat="47.73837" lon="-3.40747">
        <ele>159.2</ele>
        <time>2010-08-13T09:42:18Z</time>
      </trkpt>
      <trkpt lat="47.73836" lon="-3.40814">
        <ele>157.4</ele>
        <time>2010-08-13T09:42:27Z</time>
      </trkpt>
      <trkpt lat="47.73837" lon="-3.40892">
        <ele>155.7</ele>
        <time>2010-08-13T09:42:35Z</time>
      </trkpt>
      <trkpt lat="47.7384" lon="-3.40961">
        <ele>154.7</ele>
        <time>2010-08-13T09:42:40Z</time>
      </trkpt>
      <trkpt lat="47.73857" lon="-3.41029">
        <ele>149.1</ele>
        <time>2010-08-13T09:42:46Z</time>
      </trkpt>
      <trkpt lat="47.73904" lon="-3.4105">
        <ele>131</ele>
        <time>2010-08-13T09:42:54Z</time>
      </trkpt>
      <trkpt lat="47.73921" lon="-3.41057">
        <ele>125.9</ele>
        <time>2010-08-13T09:42:57Z</time>
      </trkpt>
      <trkpt lat="47.73935" lon="-3.41122">
        <ele>116.2</ele>
        <time>2010-08-13T09:43:03Z</time>
      </trkpt>
      <trkpt lat="47.73946" lon="-3.41194">
        <ele>110</ele>
        <time>2010-08-13T09:43:11Z</time>
      </trkpt>
      <trkpt lat="47.73952" lon="-3.41268">
        <ele>104.1</ele>
        <time>2010-08-13T09:43:20Z</time>
      </trkpt>
      <trkpt lat="47.73964" lon="-3.41344">
        <ele>105.1</ele>
        <time>2010-08-13T09:43:33Z</time>
      </trkpt>
      <trkpt lat="47.73969" lon="-3.41397">
        <ele>106.1</ele>
        <time>2010-08-13T09:43:45Z</time>
      </trkpt>
      <trkpt lat="47.73942" lon="-3.41421">
        <ele>107.7</ele>
        <time>2010-08-13T09:44:04Z</time>
      </trkpt>
      <trkpt lat="47.739" lon="-3.41397">
        <ele>108.7</ele>
        <time>2010-08-13T09:44:17Z</time>
      </trkpt>
      <trkpt lat="47.73861" lon="-3.41341">
        <ele>109.7</ele>
        <time>2010-08-13T09:44:28Z</time>
      </trkpt>
      <trkpt lat="47.73823" lon="-3.41253">
        <ele>110.4</ele>
        <time>2010-08-13T09:44:37Z</time>
      </trkpt>
      <trkpt lat="47.73799" lon="-3.41229">
        <ele>111.2</ele>
        <time>2010-08-13T09:44:47Z</time>
      </trkpt>
      <trkpt lat="47.73773" lon="-3.41214">
        <ele>111.8</ele>
        <time>2010-08-13T09:44:54Z</time>
      </trkpt>
      <trkpt lat="47.73722" lon="-3.41212">
        <ele>112.9</ele>
        <time>2010-08-13T09:45:08Z</time>
      </trkpt>
      <trkpt lat="47.73682" lon="-3.41223">
        <ele>114</ele>
        <time>2010-08-13T09:45:21Z</time>
      </trkpt>
      <trkpt lat="47.73641" lon="-3.41285">
        <ele>118.9</ele>
        <time>2010-08-13T09:45:44Z</time>
      </trkpt>
      <trkpt lat="47.73613" lon="-3.41294">
        <ele>124</ele>
        <time>2010-08-13T09:46:09Z</time>
      </trkpt>
      <trkpt lat="47.73554" lon="-3.41288">
        <ele>121.3</ele>
        <time>2010-08-13T09:46:26Z</time>
      </trkpt>
      <trkpt lat="47.73497" lon="-3.41287">
        <ele>118.3</ele>
        <time>2010-08-13T09:46:45Z</time>
      </trkpt>
      <trkpt lat="47.73478" lon="-3.41236">
        <ele>111.8</ele>
        <time>2010-08-13T09:47:21Z</time>
      </trkpt>
      <trkpt lat="47.73444" lon="-3.41245">
        <ele>105.7</ele>
        <time>2010-08-13T09:47:55Z</time>
      </trkpt>
      <trkpt lat="47.73417" lon="-3.41303">
        <ele>110.6</ele>
        <time>2010-08-13T09:48:18Z</time>
      </trkpt>
      <trkpt lat="47.73377" lon="-3.41357">
        <ele>113.8</ele>
        <time>2010-08-13T09:48:28Z</time>
      </trkpt>
      <trkpt lat="47.7336" lon="-3.41382">
        <ele>115.7</ele>
        <time>2010-08-13T09:48:33Z</time>
      </trkpt>
      <trkpt lat="47.73358" lon="-3.41473">
        <ele>130</ele>
        <time>2010-08-13T09:49:09Z</time>
      </trkpt>
      <trkpt lat="47.73357" lon="-3.41522">
        <ele>132.8</ele>
        <time>2010-08-13T09:49:17Z</time>
      </trkpt>
      <trkpt lat="47.73337" lon="-3.41478">
        <ele>148</ele>
        <time>2010-08-13T09:50:03Z</time>
      </trkpt>
      <trkpt lat="47.7329" lon="-3.41408">
        <ele>146.4</ele>
        <time>2010-08-13T09:50:20Z</time>
      </trkpt>
      <trkpt lat="47.73263" lon="-3.41385">
        <ele>145.5</ele>
        <time>2010-08-13T09:50:30Z</time>
      </trkpt>
      <trkpt lat="47.73256" lon="-3.41346">
        <ele>144.9</ele>
        <time>2010-08-13T09:50:36Z</time>
      </trkpt>
      <trkpt lat="47.73267" lon="-3.41299">
        <ele>143.9</ele>
        <time>2010-08-13T09:50:46Z</time>
      </trkpt>
      <trkpt lat="47.73297" lon="-3.41242">
        <ele>143.1</ele>
        <time>2010-08-13T09:50:54Z</time>
      </trkpt>
      <trkpt lat="47.73329" lon="-3.41179">
        <ele>141.8</ele>
        <time>2010-08-13T09:51:08Z</time>
      </trkpt>
      <trkpt lat="47.73347" lon="-3.41111">
        <ele>141</ele>
        <time>2010-08-13T09:51:17Z</time>
      </trkpt>
      <trkpt lat="47.73362" lon="-3.41039">
        <ele>140.4</ele>
        <time>2010-08-13T09:51:23Z</time>
      </trkpt>
      <trkpt lat="47.73382" lon="-3.40972">
        <ele>139.8</ele>
        <time>2010-08-13T09:51:29Z</time>
      </trkpt>
      <trkpt lat="47.73397" lon="-3.40888">
        <ele>139.2</ele>
        <time>2010-08-13T09:51:36Z</time>
      </trkpt>
      <trkpt lat="47.73393" lon="-3.40867">
        <ele>138.6</ele>
        <time>2010-08-13T09:51:42Z</time>
      </trkpt>
      <trkpt lat="47.73375" lon="-3.40859">
        <ele>138</ele>
        <time>2010-08-13T09:51:48Z</time>
      </trkpt>
      <trkpt lat="47.73335" lon="-3.40779">
        <ele>132</ele>
        <time>2010-08-13T09:52:07Z</time>
      </trkpt>
      <trkpt lat="47.73321" lon="-3.40736">
        <ele>127</ele>
        <time>2010-08-13T09:52:16Z</time>
      </trkpt>
      <trkpt lat="47.73282" lon="-3.40671">
        <ele>101</ele>
        <time>2010-08-13T09:52:44Z</time>
      </trkpt>
      <trkpt lat="47.73216" lon="-3.40608">
        <ele>98.5</ele>
        <time>2010-08-13T09:53:20Z</time>
      </trkpt>
      <trkpt lat="47.73184" lon="-3.40636">
        <ele>96.1</ele>
        <time>2010-08-13T09:53:56Z</time>
      </trkpt>
      <trkpt lat="47.73164" lon="-3.40641">
        <ele>95.6</ele>
        <time>2010-08-13T09:54:04Z</time>
      </trkpt>
      <trkpt lat="47.73103" lon="-3.4062">
        <ele>93.5</ele>
        <time>2010-08-13T09:54:35Z</time>
      </trkpt>
      <trkpt lat="47.73065" lon="-3.40656">
        <ele>92.7</ele>
        <time>2010-08-13T09:54:47Z</time>
      </trkpt>
      <trkpt lat="47.73037" lon="-3.40712">
        <ele>92.1</ele>
        <time>2010-08-13T09:54:56Z</time>
      </trkpt>
      <trkpt lat="47.7301" lon="-3.40771">
        <ele>91.5</ele>
        <time>2010-08-13T09:55:04Z</time>
      </trkpt>
      <trkpt lat="47.7298" lon="-3.40803">
        <ele>91</ele>
        <time>2010-08-13T09:55:12Z</time>
      </trkpt>
      <trkpt lat="47.72934" lon="-3.40801">
        <ele>92.3</ele>
        <time>2010-08-13T09:55:20Z</time>
      </trkpt>
      <trkpt lat="47.72883" lon="-3.40801">
        <ele>93.4</ele>
        <time>2010-08-13T09:55:28Z</time>
      </trkpt>
      <trkpt lat="47.72847" lon="-3.40785">
        <ele>94.6</ele>
        <time>2010-08-13T09:55:37Z</time>
      </trkpt>
      <trkpt lat="47.72818" lon="-3.40749">
        <ele>95.9</ele>
        <time>2010-08-13T09:55:45Z</time>
      </trkpt>
      <trkpt lat="47.72772" lon="-3.40734">
        <ele>98.1</ele>
        <time>2010-08-13T09:56:01Z</time>
      </trkpt>
      <trkpt lat="47.72728" lon="-3.40706">
        <ele>100.1</ele>
        <time>2010-08-13T09:56:14Z</time>
      </trkpt>
      <trkpt lat="47.72685" lon="-3.40668">
        <ele>102.7</ele>
        <time>2010-08-13T09:56:25Z</time>
      </trkpt>
      <trkpt lat="47.72645" lon="-3.40626">
        <ele>107</ele>
        <time>2010-08-13T09:56:35Z</time>
      </trkpt>
      <trkpt lat="47.72613" lon="-3.40576">
        <ele>111</ele>
        <time>2010-08-13T09:56:45Z</time>
      </trkpt>
      <trkpt lat="47.72621" lon="-3.40504">
        <ele>109.9</ele>
        <time>2010-08-13T09:56:53Z</time>
      </trkpt>
      <trkpt lat="47.72635" lon="-3.40436">
        <ele>108.7</ele>
        <time>2010-08-13T09:57:03Z</time>
      </trkpt>
      <trkpt lat="47.7264" lon="-3.40389">
        <ele>107.9</ele>
        <time>2010-08-13T09:57:10Z</time>
      </trkpt>
      <trkpt lat="47.72679" lon="-3.4035">
        <ele>106.7</ele>
        <time>2010-08-13T09:57:19Z</time>
      </trkpt>
      <trkpt lat="47.72716" lon="-3.40308">
        <ele>105.9</ele>
        <time>2010-08-13T09:57:25Z</time>
      </trkpt>
      <trkpt lat="47.7272" lon="-3.4024">
        <ele>104.9</ele>
        <time>2010-08-13T09:57:34Z</time>
      </trkpt>
      <trkpt lat="47.7273" lon="-3.40228">
        <ele>104.5</ele>
        <time>2010-08-13T09:57:37Z</time>
      </trkpt>
      <trkpt lat="47.72775" lon="-3.40226">
        <ele>103.5</ele>
        <time>2010-08-13T09:57:45Z</time>
      </trkpt>
      <trkpt lat="47.72822" lon="-3.40239">
        <ele>102.6</ele>
        <time>2010-08-13T09:57:52Z</time>
      </trkpt>
      <trkpt lat="47.72866" lon="-3.40215">
        <ele>101.8</ele>
        <time>2010-08-13T09:57:58Z</time>
      </trkpt>
      <trkpt lat="47.72883" lon="-3.40175">
        <ele>101</ele>
        <time>2010-08-13T09:58:06Z</time>
      </trkpt>
      <trkpt lat="47.72886" lon="-3.40102">
        <ele>101.1</ele>
        <time>2010-08-13T09:58:13Z</time>
      </trkpt>
      <trkpt lat="47.729" lon="-3.40036">
        <ele>101.2</ele>
        <time>2010-08-13T09:58:21Z</time>
      </trkpt>
      <trkpt lat="47.72864" lon="-3.3999">
        <ele>101.4</ele>
        <time>2010-08-13T09:58:33Z</time>
      </trkpt>
      <trkpt lat="47.72825" lon="-3.39956">
        <ele>101.6</ele>
        <time>2010-08-13T09:58:43Z</time>
      </trkpt>
      <trkpt lat="47.72789" lon="-3.3994">
        <ele>101.8</ele>
        <time>2010-08-13T09:58:58Z</time>
      </trkpt>
      <trkpt lat="47.72756" lon="-3.39875">
        <ele>102.1</ele>
        <time>2010-08-13T09:59:17Z</time>
      </trkpt>
      <trkpt lat="47.72724" lon="-3.39806">
        <ele>102.3</ele>
        <time>2010-08-13T09:59:32Z</time>
      </trkpt>
      <trkpt lat="47.72716" lon="-3.39792">
        <ele>102.4</ele>
        <time>2010-08-13T09:59:39Z</time>
      </trkpt>
      <trkpt lat="47.7269" lon="-3.39771">
        <ele>102.8</ele>
        <time>2010-08-13T10:00:06Z</time>
      </trkpt>
      <trkpt lat="47.72662" lon="-3.39762">
        <ele>103</ele>
        <time>2010-08-13T10:00:17Z</time>
      </trkpt>
      <trkpt lat="47.72662" lon="-3.39762">
        <ele>103</ele>
        <time>2010-08-13T10:00:19Z</time>
      </trkpt>
      <trkpt lat="47.72627" lon="-3.39789">
        <ele>70</ele>
        <time>2010-08-13T10:02:42Z</time>
      </trkpt>
      <trkpt lat="47.7261" lon="-3.39751">
        <ele>75.7</ele>
        <time>2010-08-13T10:03:07Z</time>
      </trkpt>
      <trkpt lat="47.72605" lon="-3.39739">
        <ele>77.1</ele>
        <time>2010-08-13T10:03:12Z</time>
      </trkpt>
      <trkpt lat="47.72628" lon="-3.39694">
        <ele>80.8</ele>
        <time>2010-08-13T10:03:28Z</time>
      </trkpt>
      <trkpt lat="47.7265" lon="-3.39663">
        <ele>85</ele>
        <time>2010-08-13T10:03:46Z</time>
      </trkpt>
      <trkpt lat="47.72633" lon="-3.39633">
        <ele>85.3</ele>
        <time>2010-08-13T10:04:06Z</time>
      </trkpt>
      <trkpt lat="47.72563" lon="-3.39623">
        <ele>85.5</ele>
        <time>2010-08-13T10:04:15Z</time>
      </trkpt>
      <trkpt lat="47.7252" lon="-3.39602">
        <ele>85.7</ele>
        <time>2010-08-13T10:04:26Z</time>
      </trkpt>
      <trkpt lat="47.72476" lon="-3.39584">
        <ele>85.8</ele>
        <time>2010-08-13T10:04:35Z</time>
      </trkpt>
      <trkpt lat="47.72428" lon="-3.39583">
        <ele>86</ele>
        <time>2010-08-13T10:04:44Z</time>
      </trkpt>
      <trkpt lat="47.72402" lon="-3.39586">
        <ele>86</ele>
        <time>2010-08-13T10:04:49Z</time>
      </trkpt>
      <trkpt lat="47.72356" lon="-3.39615">
        <ele>86.2</ele>
        <time>2010-08-13T10:04:56Z</time>
      </trkpt>
      <trkpt lat="47.72314" lon="-3.39646">
        <ele>86.3</ele>
        <time>2010-08-13T10:05:03Z</time>
      </trkpt>
      <trkpt lat="47.72271" lon="-3.39672">
        <ele>86.4</ele>
        <time>2010-08-13T10:05:10Z</time>
      </trkpt>
      <trkpt lat="47.72224" lon="-3.39672">
        <ele>86.6</ele>
        <time>2010-08-13T10:05:20Z</time>
      </trkpt>
      <trkpt lat="47.72185" lon="-3.39632">
        <ele>86.7</ele>
        <time>2010-08-13T10:05:30Z</time>
      </trkpt>
      <trkpt lat="47.72142" lon="-3.3961">
        <ele>86.9</ele>
        <time>2010-08-13T10:05:39Z</time>
      </trkpt>
      <trkpt lat="47.72097" lon="-3.39594">
        <ele>87</ele>
        <time>2010-08-13T10:05:49Z</time>
      </trkpt>
      <trkpt lat="47.72083" lon="-3.39586">
        <ele>87.1</ele>
        <time>2010-08-13T10:05:52Z</time>
      </trkpt>
      <trkpt lat="47.72112" lon="-3.39651">
        <ele>87.3</ele>
        <time>2010-08-13T10:06:05Z</time>
      </trkpt>
      <trkpt lat="47.72136" lon="-3.39709">
        <ele>87.4</ele>
        <time>2010-08-13T10:06:11Z</time>
      </trkpt>
      <trkpt lat="47.72156" lon="-3.39772">
        <ele>87.7</ele>
        <time>2010-08-13T10:06:25Z</time>
      </trkpt>
      <trkpt lat="47.72172" lon="-3.39844">
        <ele>87.9</ele>
        <time>2010-08-13T10:06:38Z</time>
      </trkpt>
      <trkpt lat="47.72177" lon="-3.39894">
        <ele>88.1</ele>
        <time>2010-08-13T10:06:52Z</time>
      </trkpt>
      <trkpt lat="47.7222" lon="-3.3996">
        <ele>88.3</ele>
        <time>2010-08-13T10:07:05Z</time>
      </trkpt>
      <trkpt lat="47.72247" lon="-3.39955">
        <ele>89.5</ele>
        <time>2010-08-13T10:08:18Z</time>
      </trkpt>
      <trkpt lat="47.72247" lon="-3.39955">
        <ele>90</ele>
        <time>2010-08-13T10:08:47Z</time>
      </trkpt>
    </trkseg>
  </trk>
</gpx>